<?xml version="1.0" encoding="UTF-8" standalone="no" ?>
<gpx xmlns="http://www.topografix.com/GPX/1/1" xmlns:xsi="http://www.w3.org/2001/XMLSchema-instance" xsi:schemaLocation="http://www.topografix.com/GPX/1/1 http://www.topografix.com/GPX/1/1/gpx.xsd" version="1.1" creator="VisuGPX - https://www.visugpx.com">
  <metadata>
    <name>Etang d'Appy</name>
    <desc><![CDATA[Comme on peut le voir sur les photos, des paysages à couper le souffle.]]></desc>
  </metadata>
  <trk>
    <name><![CDATA[2021-08-22 12:03:22]]></name>
    <trkseg>
      <trkpt lat="42.79175" lon="1.73274">
        <ele>1028.75</ele>
        <time>2021-08-22T06:45:47Z</time>
      </trkpt>
      <trkpt lat="42.79175" lon="1.73274">
        <ele>1028.75</ele>
        <time>2021-08-22T06:45:48Z</time>
      </trkpt>
      <trkpt lat="42.79175" lon="1.73275">
        <ele>1002.31</ele>
        <time>2021-08-22T06:45:54Z</time>
      </trkpt>
      <trkpt lat="42.79175" lon="1.73275">
        <ele>1002.31</ele>
        <time>2021-08-22T06:45:55Z</time>
      </trkpt>
      <trkpt lat="42.79175" lon="1.73275">
        <ele>999.91</ele>
        <time>2021-08-22T06:46:00Z</time>
      </trkpt>
      <trkpt lat="42.79177" lon="1.73279">
        <ele>999.91</ele>
        <time>2021-08-22T06:46:17Z</time>
      </trkpt>
      <trkpt lat="42.79179" lon="1.73278">
        <ele>999.91</ele>
        <time>2021-08-22T06:46:31Z</time>
      </trkpt>
      <trkpt lat="42.79179" lon="1.7328">
        <ele>999.91</ele>
        <time>2021-08-22T06:46:43Z</time>
      </trkpt>
      <trkpt lat="42.79184" lon="1.73289">
        <ele>1000.87</ele>
        <time>2021-08-22T06:46:55Z</time>
      </trkpt>
      <trkpt lat="42.79189" lon="1.73297">
        <ele>1002.31</ele>
        <time>2021-08-22T06:47:06Z</time>
      </trkpt>
      <trkpt lat="42.79192" lon="1.73308">
        <ele>1002.79</ele>
        <time>2021-08-22T06:47:18Z</time>
      </trkpt>
      <trkpt lat="42.79196" lon="1.73325">
        <ele>1003.27</ele>
        <time>2021-08-22T06:47:32Z</time>
      </trkpt>
      <trkpt lat="42.79201" lon="1.73336">
        <ele>1004.72</ele>
        <time>2021-08-22T06:47:43Z</time>
      </trkpt>
      <trkpt lat="42.79206" lon="1.73344">
        <ele>1006.16</ele>
        <time>2021-08-22T06:47:51Z</time>
      </trkpt>
      <trkpt lat="42.79217" lon="1.73359">
        <ele>1007.12</ele>
        <time>2021-08-22T06:48:05Z</time>
      </trkpt>
      <trkpt lat="42.79228" lon="1.73372">
        <ele>1008.56</ele>
        <time>2021-08-22T06:48:18Z</time>
      </trkpt>
      <trkpt lat="42.79237" lon="1.73383">
        <ele>1010</ele>
        <time>2021-08-22T06:48:30Z</time>
      </trkpt>
      <trkpt lat="42.7925" lon="1.73392">
        <ele>1011.44</ele>
        <time>2021-08-22T06:48:44Z</time>
      </trkpt>
      <trkpt lat="42.79255" lon="1.73394">
        <ele>1012.89</ele>
        <time>2021-08-22T06:48:49Z</time>
      </trkpt>
      <trkpt lat="42.79267" lon="1.73395">
        <ele>1014.81</ele>
        <time>2021-08-22T06:49:02Z</time>
      </trkpt>
      <trkpt lat="42.79274" lon="1.73397">
        <ele>1016.25</ele>
        <time>2021-08-22T06:49:12Z</time>
      </trkpt>
      <trkpt lat="42.79284" lon="1.73399">
        <ele>1018.65</ele>
        <time>2021-08-22T06:49:24Z</time>
      </trkpt>
      <trkpt lat="42.79291" lon="1.73409">
        <ele>1020.58</ele>
        <time>2021-08-22T06:49:36Z</time>
      </trkpt>
      <trkpt lat="42.79296" lon="1.7342">
        <ele>1022.98</ele>
        <time>2021-08-22T06:49:49Z</time>
      </trkpt>
      <trkpt lat="42.793" lon="1.73421">
        <ele>1024.42</ele>
        <time>2021-08-22T06:50:00Z</time>
      </trkpt>
      <trkpt lat="42.79304" lon="1.73403">
        <ele>1024.42</ele>
        <time>2021-08-22T06:50:12Z</time>
      </trkpt>
      <trkpt lat="42.79312" lon="1.73398">
        <ele>1025.86</ele>
        <time>2021-08-22T06:50:24Z</time>
      </trkpt>
      <trkpt lat="42.79317" lon="1.73396">
        <ele>1027.31</ele>
        <time>2021-08-22T06:50:34Z</time>
      </trkpt>
      <trkpt lat="42.79325" lon="1.73396">
        <ele>1029.71</ele>
        <time>2021-08-22T06:50:46Z</time>
      </trkpt>
      <trkpt lat="42.79331" lon="1.73394">
        <ele>1031.63</ele>
        <time>2021-08-22T06:50:58Z</time>
      </trkpt>
      <trkpt lat="42.7934" lon="1.73395">
        <ele>1033.55</ele>
        <time>2021-08-22T06:51:10Z</time>
      </trkpt>
      <trkpt lat="42.79348" lon="1.73398">
        <ele>1035.48</ele>
        <time>2021-08-22T06:51:22Z</time>
      </trkpt>
      <trkpt lat="42.79356" lon="1.73399">
        <ele>1037.4</ele>
        <time>2021-08-22T06:51:34Z</time>
      </trkpt>
      <trkpt lat="42.79364" lon="1.73396">
        <ele>1038.84</ele>
        <time>2021-08-22T06:51:46Z</time>
      </trkpt>
      <trkpt lat="42.79373" lon="1.73396">
        <ele>1040.76</ele>
        <time>2021-08-22T06:51:57Z</time>
      </trkpt>
      <trkpt lat="42.79381" lon="1.73395">
        <ele>1042.69</ele>
        <time>2021-08-22T06:52:09Z</time>
      </trkpt>
      <trkpt lat="42.79389" lon="1.73398">
        <ele>1044.13</ele>
        <time>2021-08-22T06:52:20Z</time>
      </trkpt>
      <trkpt lat="42.794" lon="1.73399">
        <ele>1046.05</ele>
        <time>2021-08-22T06:52:33Z</time>
      </trkpt>
      <trkpt lat="42.79412" lon="1.73398">
        <ele>1047.01</ele>
        <time>2021-08-22T06:52:48Z</time>
      </trkpt>
      <trkpt lat="42.79425" lon="1.73399">
        <ele>1047.97</ele>
        <time>2021-08-22T06:52:59Z</time>
      </trkpt>
      <trkpt lat="42.79436" lon="1.73395">
        <ele>1049.42</ele>
        <time>2021-08-22T06:53:13Z</time>
      </trkpt>
      <trkpt lat="42.79445" lon="1.73392">
        <ele>1050.86</ele>
        <time>2021-08-22T06:53:25Z</time>
      </trkpt>
      <trkpt lat="42.79453" lon="1.73389">
        <ele>1052.78</ele>
        <time>2021-08-22T06:53:35Z</time>
      </trkpt>
      <trkpt lat="42.79461" lon="1.73392">
        <ele>1054.22</ele>
        <time>2021-08-22T06:53:47Z</time>
      </trkpt>
      <trkpt lat="42.7946" lon="1.73391">
        <ele>1054.22</ele>
        <time>2021-08-22T06:53:59Z</time>
      </trkpt>
      <trkpt lat="42.7946" lon="1.73389">
        <ele>1053.26</ele>
        <time>2021-08-22T06:54:16Z</time>
      </trkpt>
      <trkpt lat="42.79459" lon="1.73388">
        <ele>1052.78</ele>
        <time>2021-08-22T06:54:37Z</time>
      </trkpt>
      <trkpt lat="42.79458" lon="1.73388">
        <ele>1052.78</ele>
        <time>2021-08-22T06:54:58Z</time>
      </trkpt>
      <trkpt lat="42.79458" lon="1.73391">
        <ele>1052.78</ele>
        <time>2021-08-22T06:55:11Z</time>
      </trkpt>
      <trkpt lat="42.79462" lon="1.73396">
        <ele>1052.78</ele>
        <time>2021-08-22T06:55:30Z</time>
      </trkpt>
      <trkpt lat="42.79462" lon="1.73398">
        <ele>1053.74</ele>
        <time>2021-08-22T06:55:33Z</time>
      </trkpt>
      <trkpt lat="42.79461" lon="1.73405">
        <ele>1055.18</ele>
        <time>2021-08-22T06:55:42Z</time>
      </trkpt>
      <trkpt lat="42.79461" lon="1.73407">
        <ele>1057.11</ele>
        <time>2021-08-22T06:55:45Z</time>
      </trkpt>
      <trkpt lat="42.7946" lon="1.73415">
        <ele>1057.11</ele>
        <time>2021-08-22T06:55:50Z</time>
      </trkpt>
      <trkpt lat="42.79456" lon="1.73435">
        <ele>1058.07</ele>
        <time>2021-08-22T06:56:03Z</time>
      </trkpt>
      <trkpt lat="42.7946" lon="1.73455">
        <ele>1059.51</ele>
        <time>2021-08-22T06:56:16Z</time>
      </trkpt>
      <trkpt lat="42.79464" lon="1.73468">
        <ele>1061.91</ele>
        <time>2021-08-22T06:56:27Z</time>
      </trkpt>
      <trkpt lat="42.79466" lon="1.73478">
        <ele>1063.36</ele>
        <time>2021-08-22T06:56:37Z</time>
      </trkpt>
      <trkpt lat="42.79468" lon="1.7349">
        <ele>1066.24</ele>
        <time>2021-08-22T06:56:49Z</time>
      </trkpt>
      <trkpt lat="42.79472" lon="1.73499">
        <ele>1067.68</ele>
        <time>2021-08-22T06:56:59Z</time>
      </trkpt>
      <trkpt lat="42.79471" lon="1.73511">
        <ele>1069.6</ele>
        <time>2021-08-22T06:57:11Z</time>
      </trkpt>
      <trkpt lat="42.79473" lon="1.73521">
        <ele>1071.53</ele>
        <time>2021-08-22T06:57:22Z</time>
      </trkpt>
      <trkpt lat="42.79474" lon="1.7353">
        <ele>1072.49</ele>
        <time>2021-08-22T06:57:33Z</time>
      </trkpt>
      <trkpt lat="42.79475" lon="1.73539">
        <ele>1074.41</ele>
        <time>2021-08-22T06:57:45Z</time>
      </trkpt>
      <trkpt lat="42.79476" lon="1.73548">
        <ele>1076.33</ele>
        <time>2021-08-22T06:57:56Z</time>
      </trkpt>
      <trkpt lat="42.79477" lon="1.73557">
        <ele>1077.78</ele>
        <time>2021-08-22T06:58:06Z</time>
      </trkpt>
      <trkpt lat="42.79478" lon="1.73563">
        <ele>1078.74</ele>
        <time>2021-08-22T06:58:15Z</time>
      </trkpt>
      <trkpt lat="42.79477" lon="1.7357">
        <ele>1080.18</ele>
        <time>2021-08-22T06:58:25Z</time>
      </trkpt>
      <trkpt lat="42.7948" lon="1.73577">
        <ele>1081.14</ele>
        <time>2021-08-22T06:58:34Z</time>
      </trkpt>
      <trkpt lat="42.7948" lon="1.73584">
        <ele>1083.06</ele>
        <time>2021-08-22T06:58:44Z</time>
      </trkpt>
      <trkpt lat="42.79483" lon="1.73583">
        <ele>1084.5</ele>
        <time>2021-08-22T06:58:55Z</time>
      </trkpt>
      <trkpt lat="42.79485" lon="1.73571">
        <ele>1085.47</ele>
        <time>2021-08-22T06:59:06Z</time>
      </trkpt>
      <trkpt lat="42.79492" lon="1.73566">
        <ele>1086.91</ele>
        <time>2021-08-22T06:59:17Z</time>
      </trkpt>
      <trkpt lat="42.79495" lon="1.7357">
        <ele>1088.35</ele>
        <time>2021-08-22T06:59:28Z</time>
      </trkpt>
      <trkpt lat="42.79499" lon="1.73568">
        <ele>1089.79</ele>
        <time>2021-08-22T06:59:37Z</time>
      </trkpt>
      <trkpt lat="42.79502" lon="1.73561">
        <ele>1090.75</ele>
        <time>2021-08-22T06:59:46Z</time>
      </trkpt>
      <trkpt lat="42.79506" lon="1.73554">
        <ele>1092.68</ele>
        <time>2021-08-22T06:59:57Z</time>
      </trkpt>
      <trkpt lat="42.79511" lon="1.7355">
        <ele>1094.12</ele>
        <time>2021-08-22T07:00:08Z</time>
      </trkpt>
      <trkpt lat="42.79515" lon="1.73556">
        <ele>1096.04</ele>
        <time>2021-08-22T07:00:20Z</time>
      </trkpt>
      <trkpt lat="42.7952" lon="1.73551">
        <ele>1097.48</ele>
        <time>2021-08-22T07:00:32Z</time>
      </trkpt>
      <trkpt lat="42.79525" lon="1.73544">
        <ele>1099.4</ele>
        <time>2021-08-22T07:00:45Z</time>
      </trkpt>
      <trkpt lat="42.79529" lon="1.73539">
        <ele>1100.85</ele>
        <time>2021-08-22T07:00:56Z</time>
      </trkpt>
      <trkpt lat="42.79534" lon="1.73536">
        <ele>1102.29</ele>
        <time>2021-08-22T07:01:06Z</time>
      </trkpt>
      <trkpt lat="42.79536" lon="1.73543">
        <ele>1103.25</ele>
        <time>2021-08-22T07:01:16Z</time>
      </trkpt>
      <trkpt lat="42.79535" lon="1.73549">
        <ele>1104.69</ele>
        <time>2021-08-22T07:01:25Z</time>
      </trkpt>
      <trkpt lat="42.79537" lon="1.73558">
        <ele>1106.61</ele>
        <time>2021-08-22T07:01:37Z</time>
      </trkpt>
      <trkpt lat="42.79538" lon="1.73566">
        <ele>1108.06</ele>
        <time>2021-08-22T07:01:46Z</time>
      </trkpt>
      <trkpt lat="42.79538" lon="1.73569">
        <ele>1109.02</ele>
        <time>2021-08-22T07:01:55Z</time>
      </trkpt>
      <trkpt lat="42.79542" lon="1.73565">
        <ele>1110.46</ele>
        <time>2021-08-22T07:02:05Z</time>
      </trkpt>
      <trkpt lat="42.79544" lon="1.73574">
        <ele>1112.38</ele>
        <time>2021-08-22T07:02:16Z</time>
      </trkpt>
      <trkpt lat="42.79547" lon="1.73579">
        <ele>1114.31</ele>
        <time>2021-08-22T07:02:27Z</time>
      </trkpt>
      <trkpt lat="42.79551" lon="1.73586">
        <ele>1115.75</ele>
        <time>2021-08-22T07:02:38Z</time>
      </trkpt>
      <trkpt lat="42.79552" lon="1.73593">
        <ele>1117.67</ele>
        <time>2021-08-22T07:02:51Z</time>
      </trkpt>
      <trkpt lat="42.79551" lon="1.73599">
        <ele>1119.11</ele>
        <time>2021-08-22T07:03:02Z</time>
      </trkpt>
      <trkpt lat="42.79552" lon="1.73605">
        <ele>1120.55</ele>
        <time>2021-08-22T07:03:13Z</time>
      </trkpt>
      <trkpt lat="42.79548" lon="1.73612">
        <ele>1122</ele>
        <time>2021-08-22T07:03:25Z</time>
      </trkpt>
      <trkpt lat="42.79551" lon="1.73621">
        <ele>1124.4</ele>
        <time>2021-08-22T07:03:36Z</time>
      </trkpt>
      <trkpt lat="42.79552" lon="1.73627">
        <ele>1125.36</ele>
        <time>2021-08-22T07:03:52Z</time>
      </trkpt>
      <trkpt lat="42.79557" lon="1.73632">
        <ele>1126.8</ele>
        <time>2021-08-22T07:04:03Z</time>
      </trkpt>
      <trkpt lat="42.79556" lon="1.73638">
        <ele>1128.24</ele>
        <time>2021-08-22T07:04:14Z</time>
      </trkpt>
      <trkpt lat="42.79554" lon="1.73648">
        <ele>1129.21</ele>
        <time>2021-08-22T07:04:26Z</time>
      </trkpt>
      <trkpt lat="42.79553" lon="1.73659">
        <ele>1130.65</ele>
        <time>2021-08-22T07:04:37Z</time>
      </trkpt>
      <trkpt lat="42.79552" lon="1.73668">
        <ele>1132.09</ele>
        <time>2021-08-22T07:04:48Z</time>
      </trkpt>
      <trkpt lat="42.79551" lon="1.73675">
        <ele>1132.57</ele>
        <time>2021-08-22T07:04:57Z</time>
      </trkpt>
      <trkpt lat="42.79549" lon="1.73684">
        <ele>1134.49</ele>
        <time>2021-08-22T07:05:07Z</time>
      </trkpt>
      <trkpt lat="42.79547" lon="1.73693">
        <ele>1135.45</ele>
        <time>2021-08-22T07:05:17Z</time>
      </trkpt>
      <trkpt lat="42.79544" lon="1.737">
        <ele>1136.9</ele>
        <time>2021-08-22T07:05:27Z</time>
      </trkpt>
      <trkpt lat="42.79542" lon="1.73704">
        <ele>1137.38</ele>
        <time>2021-08-22T07:05:37Z</time>
      </trkpt>
      <trkpt lat="42.79542" lon="1.7371">
        <ele>1138.34</ele>
        <time>2021-08-22T07:05:48Z</time>
      </trkpt>
      <trkpt lat="42.79541" lon="1.73709">
        <ele>1138.82</ele>
        <time>2021-08-22T07:06:01Z</time>
      </trkpt>
      <trkpt lat="42.7954" lon="1.73707">
        <ele>1138.82</ele>
        <time>2021-08-22T07:06:21Z</time>
      </trkpt>
      <trkpt lat="42.7954" lon="1.73709">
        <ele>1138.82</ele>
        <time>2021-08-22T07:06:42Z</time>
      </trkpt>
      <trkpt lat="42.7954" lon="1.73709">
        <ele>1138.82</ele>
        <time>2021-08-22T07:07:08Z</time>
      </trkpt>
      <trkpt lat="42.79538" lon="1.73709">
        <ele>1138.82</ele>
        <time>2021-08-22T07:07:28Z</time>
      </trkpt>
      <trkpt lat="42.79539" lon="1.7371">
        <ele>1138.82</ele>
        <time>2021-08-22T07:07:45Z</time>
      </trkpt>
      <trkpt lat="42.79539" lon="1.73708">
        <ele>1138.82</ele>
        <time>2021-08-22T07:08:07Z</time>
      </trkpt>
      <trkpt lat="42.79539" lon="1.73709">
        <ele>1138.82</ele>
        <time>2021-08-22T07:08:21Z</time>
      </trkpt>
      <trkpt lat="42.7954" lon="1.73717">
        <ele>1139.3</ele>
        <time>2021-08-22T07:08:29Z</time>
      </trkpt>
      <trkpt lat="42.79536" lon="1.73727">
        <ele>1141.7</ele>
        <time>2021-08-22T07:08:40Z</time>
      </trkpt>
      <trkpt lat="42.79533" lon="1.73736">
        <ele>1143.63</ele>
        <time>2021-08-22T07:08:51Z</time>
      </trkpt>
      <trkpt lat="42.79528" lon="1.73744">
        <ele>1145.55</ele>
        <time>2021-08-22T07:09:02Z</time>
      </trkpt>
      <trkpt lat="42.79525" lon="1.73753">
        <ele>1147.47</ele>
        <time>2021-08-22T07:09:13Z</time>
      </trkpt>
      <trkpt lat="42.79522" lon="1.73761">
        <ele>1148.43</ele>
        <time>2021-08-22T07:09:22Z</time>
      </trkpt>
      <trkpt lat="42.7952" lon="1.7377">
        <ele>1150.35</ele>
        <time>2021-08-22T07:09:34Z</time>
      </trkpt>
      <trkpt lat="42.79518" lon="1.73778">
        <ele>1151.32</ele>
        <time>2021-08-22T07:09:44Z</time>
      </trkpt>
      <trkpt lat="42.79518" lon="1.73787">
        <ele>1153.24</ele>
        <time>2021-08-22T07:09:56Z</time>
      </trkpt>
      <trkpt lat="42.79521" lon="1.73795">
        <ele>1154.68</ele>
        <time>2021-08-22T07:10:05Z</time>
      </trkpt>
      <trkpt lat="42.79525" lon="1.73804">
        <ele>1156.6</ele>
        <time>2021-08-22T07:10:18Z</time>
      </trkpt>
      <trkpt lat="42.79526" lon="1.73812">
        <ele>1158.53</ele>
        <time>2021-08-22T07:10:28Z</time>
      </trkpt>
      <trkpt lat="42.79527" lon="1.7382">
        <ele>1159.97</ele>
        <time>2021-08-22T07:10:38Z</time>
      </trkpt>
      <trkpt lat="42.79529" lon="1.73827">
        <ele>1160.93</ele>
        <time>2021-08-22T07:10:48Z</time>
      </trkpt>
      <trkpt lat="42.7953" lon="1.73836">
        <ele>1162.85</ele>
        <time>2021-08-22T07:10:59Z</time>
      </trkpt>
      <trkpt lat="42.79532" lon="1.73842">
        <ele>1164.29</ele>
        <time>2021-08-22T07:11:09Z</time>
      </trkpt>
      <trkpt lat="42.79532" lon="1.73849">
        <ele>1165.74</ele>
        <time>2021-08-22T07:11:20Z</time>
      </trkpt>
      <trkpt lat="42.79531" lon="1.73856">
        <ele>1167.66</ele>
        <time>2021-08-22T07:11:30Z</time>
      </trkpt>
      <trkpt lat="42.79531" lon="1.73861">
        <ele>1168.14</ele>
        <time>2021-08-22T07:11:39Z</time>
      </trkpt>
      <trkpt lat="42.79529" lon="1.7387">
        <ele>1169.58</ele>
        <time>2021-08-22T07:11:50Z</time>
      </trkpt>
      <trkpt lat="42.79527" lon="1.73877">
        <ele>1171.5</ele>
        <time>2021-08-22T07:12:01Z</time>
      </trkpt>
      <trkpt lat="42.79526" lon="1.73885">
        <ele>1172.47</ele>
        <time>2021-08-22T07:12:12Z</time>
      </trkpt>
      <trkpt lat="42.79522" lon="1.73891">
        <ele>1173.91</ele>
        <time>2021-08-22T07:12:24Z</time>
      </trkpt>
      <trkpt lat="42.79519" lon="1.739">
        <ele>1175.35</ele>
        <time>2021-08-22T07:12:36Z</time>
      </trkpt>
      <trkpt lat="42.79521" lon="1.73909">
        <ele>1176.31</ele>
        <time>2021-08-22T07:12:47Z</time>
      </trkpt>
      <trkpt lat="42.7952" lon="1.7392">
        <ele>1178.23</ele>
        <time>2021-08-22T07:12:58Z</time>
      </trkpt>
      <trkpt lat="42.7952" lon="1.73929">
        <ele>1179.67</ele>
        <time>2021-08-22T07:13:08Z</time>
      </trkpt>
      <trkpt lat="42.79517" lon="1.73935">
        <ele>1181.12</ele>
        <time>2021-08-22T07:13:17Z</time>
      </trkpt>
      <trkpt lat="42.79516" lon="1.73943">
        <ele>1182.08</ele>
        <time>2021-08-22T07:13:25Z</time>
      </trkpt>
      <trkpt lat="42.79517" lon="1.73949">
        <ele>1182.56</ele>
        <time>2021-08-22T07:13:37Z</time>
      </trkpt>
      <trkpt lat="42.7952" lon="1.73959">
        <ele>1183.52</ele>
        <time>2021-08-22T07:13:47Z</time>
      </trkpt>
      <trkpt lat="42.79526" lon="1.73968">
        <ele>1184.96</ele>
        <time>2021-08-22T07:13:57Z</time>
      </trkpt>
      <trkpt lat="42.79532" lon="1.73973">
        <ele>1185.92</ele>
        <time>2021-08-22T07:14:08Z</time>
      </trkpt>
      <trkpt lat="42.79535" lon="1.7397">
        <ele>1186.88</ele>
        <time>2021-08-22T07:14:18Z</time>
      </trkpt>
      <trkpt lat="42.7954" lon="1.73967">
        <ele>1187.85</ele>
        <time>2021-08-22T07:14:29Z</time>
      </trkpt>
      <trkpt lat="42.79544" lon="1.73965">
        <ele>1189.29</ele>
        <time>2021-08-22T07:14:38Z</time>
      </trkpt>
      <trkpt lat="42.79546" lon="1.73959">
        <ele>1190.25</ele>
        <time>2021-08-22T07:14:47Z</time>
      </trkpt>
      <trkpt lat="42.79548" lon="1.73949">
        <ele>1192.17</ele>
        <time>2021-08-22T07:15:00Z</time>
      </trkpt>
      <trkpt lat="42.79554" lon="1.73947">
        <ele>1193.13</ele>
        <time>2021-08-22T07:15:10Z</time>
      </trkpt>
      <trkpt lat="42.79559" lon="1.73942">
        <ele>1195.06</ele>
        <time>2021-08-22T07:15:20Z</time>
      </trkpt>
      <trkpt lat="42.79566" lon="1.73941">
        <ele>1196.02</ele>
        <time>2021-08-22T07:15:31Z</time>
      </trkpt>
      <trkpt lat="42.79573" lon="1.73941">
        <ele>1197.46</ele>
        <time>2021-08-22T07:15:42Z</time>
      </trkpt>
      <trkpt lat="42.79574" lon="1.73942">
        <ele>1197.94</ele>
        <time>2021-08-22T07:15:44Z</time>
      </trkpt>
      <trkpt lat="42.79578" lon="1.73952">
        <ele>1199.38</ele>
        <time>2021-08-22T07:15:56Z</time>
      </trkpt>
      <trkpt lat="42.79581" lon="1.73958">
        <ele>1200.82</ele>
        <time>2021-08-22T07:16:04Z</time>
      </trkpt>
      <trkpt lat="42.79585" lon="1.73964">
        <ele>1202.27</ele>
        <time>2021-08-22T07:16:14Z</time>
      </trkpt>
      <trkpt lat="42.7959" lon="1.73967">
        <ele>1203.71</ele>
        <time>2021-08-22T07:16:24Z</time>
      </trkpt>
      <trkpt lat="42.79595" lon="1.73968">
        <ele>1204.19</ele>
        <time>2021-08-22T07:16:33Z</time>
      </trkpt>
      <trkpt lat="42.79601" lon="1.73969">
        <ele>1205.63</ele>
        <time>2021-08-22T07:16:43Z</time>
      </trkpt>
      <trkpt lat="42.79607" lon="1.73969">
        <ele>1207.07</ele>
        <time>2021-08-22T07:16:54Z</time>
      </trkpt>
      <trkpt lat="42.79612" lon="1.73967">
        <ele>1208.51</ele>
        <time>2021-08-22T07:17:04Z</time>
      </trkpt>
      <trkpt lat="42.79617" lon="1.73968">
        <ele>1209.48</ele>
        <time>2021-08-22T07:17:16Z</time>
      </trkpt>
      <trkpt lat="42.79622" lon="1.73974">
        <ele>1211.4</ele>
        <time>2021-08-22T07:17:26Z</time>
      </trkpt>
      <trkpt lat="42.79629" lon="1.7398">
        <ele>1211.88</ele>
        <time>2021-08-22T07:17:37Z</time>
      </trkpt>
      <trkpt lat="42.79635" lon="1.73984">
        <ele>1213.32</ele>
        <time>2021-08-22T07:17:47Z</time>
      </trkpt>
      <trkpt lat="42.79642" lon="1.73988">
        <ele>1214.28</ele>
        <time>2021-08-22T07:17:57Z</time>
      </trkpt>
      <trkpt lat="42.79649" lon="1.73991">
        <ele>1216.21</ele>
        <time>2021-08-22T07:18:09Z</time>
      </trkpt>
      <trkpt lat="42.79653" lon="1.73992">
        <ele>1217.17</ele>
        <time>2021-08-22T07:18:19Z</time>
      </trkpt>
      <trkpt lat="42.79657" lon="1.73996">
        <ele>1218.13</ele>
        <time>2021-08-22T07:18:29Z</time>
      </trkpt>
      <trkpt lat="42.79662" lon="1.73998">
        <ele>1219.57</ele>
        <time>2021-08-22T07:18:40Z</time>
      </trkpt>
      <trkpt lat="42.79668" lon="1.74">
        <ele>1221.01</ele>
        <time>2021-08-22T07:18:50Z</time>
      </trkpt>
      <trkpt lat="42.79672" lon="1.74004">
        <ele>1222.93</ele>
        <time>2021-08-22T07:19:01Z</time>
      </trkpt>
      <trkpt lat="42.79677" lon="1.74002">
        <ele>1224.38</ele>
        <time>2021-08-22T07:19:12Z</time>
      </trkpt>
      <trkpt lat="42.79682" lon="1.74005">
        <ele>1225.82</ele>
        <time>2021-08-22T07:19:21Z</time>
      </trkpt>
      <trkpt lat="42.79687" lon="1.74008">
        <ele>1227.26</ele>
        <time>2021-08-22T07:19:31Z</time>
      </trkpt>
      <trkpt lat="42.79694" lon="1.7401">
        <ele>1228.7</ele>
        <time>2021-08-22T07:19:42Z</time>
      </trkpt>
      <trkpt lat="42.79699" lon="1.7401">
        <ele>1230.14</ele>
        <time>2021-08-22T07:19:53Z</time>
      </trkpt>
      <trkpt lat="42.79704" lon="1.7401">
        <ele>1231.59</ele>
        <time>2021-08-22T07:20:03Z</time>
      </trkpt>
      <trkpt lat="42.79708" lon="1.74011">
        <ele>1232.55</ele>
        <time>2021-08-22T07:20:11Z</time>
      </trkpt>
      <trkpt lat="42.7971" lon="1.74013">
        <ele>1233.99</ele>
        <time>2021-08-22T07:20:21Z</time>
      </trkpt>
      <trkpt lat="42.79712" lon="1.74011">
        <ele>1233.99</ele>
        <time>2021-08-22T07:20:40Z</time>
      </trkpt>
      <trkpt lat="42.79719" lon="1.74013">
        <ele>1235.43</ele>
        <time>2021-08-22T07:20:51Z</time>
      </trkpt>
      <trkpt lat="42.79727" lon="1.74015">
        <ele>1236.87</ele>
        <time>2021-08-22T07:21:02Z</time>
      </trkpt>
      <trkpt lat="42.79733" lon="1.74015">
        <ele>1238.32</ele>
        <time>2021-08-22T07:21:11Z</time>
      </trkpt>
      <trkpt lat="42.79739" lon="1.74014">
        <ele>1239.76</ele>
        <time>2021-08-22T07:21:21Z</time>
      </trkpt>
      <trkpt lat="42.79746" lon="1.74014">
        <ele>1241.2</ele>
        <time>2021-08-22T07:21:30Z</time>
      </trkpt>
      <trkpt lat="42.79754" lon="1.74014">
        <ele>1241.68</ele>
        <time>2021-08-22T07:21:41Z</time>
      </trkpt>
      <trkpt lat="42.79757" lon="1.74015">
        <ele>1242.16</ele>
        <time>2021-08-22T07:21:51Z</time>
      </trkpt>
      <trkpt lat="42.79767" lon="1.74013">
        <ele>1244.08</ele>
        <time>2021-08-22T07:22:03Z</time>
      </trkpt>
      <trkpt lat="42.79774" lon="1.74014">
        <ele>1245.04</ele>
        <time>2021-08-22T07:22:13Z</time>
      </trkpt>
      <trkpt lat="42.7978" lon="1.74013">
        <ele>1246.01</ele>
        <time>2021-08-22T07:22:23Z</time>
      </trkpt>
      <trkpt lat="42.79785" lon="1.7401">
        <ele>1247.45</ele>
        <time>2021-08-22T07:22:32Z</time>
      </trkpt>
      <trkpt lat="42.79791" lon="1.74004">
        <ele>1248.89</ele>
        <time>2021-08-22T07:22:43Z</time>
      </trkpt>
      <trkpt lat="42.79797" lon="1.73998">
        <ele>1250.33</ele>
        <time>2021-08-22T07:22:53Z</time>
      </trkpt>
      <trkpt lat="42.79804" lon="1.73989">
        <ele>1251.77</ele>
        <time>2021-08-22T07:23:07Z</time>
      </trkpt>
      <trkpt lat="42.79809" lon="1.7398">
        <ele>1253.7</ele>
        <time>2021-08-22T07:23:18Z</time>
      </trkpt>
      <trkpt lat="42.79813" lon="1.73972">
        <ele>1254.66</ele>
        <time>2021-08-22T07:23:29Z</time>
      </trkpt>
      <trkpt lat="42.79819" lon="1.73965">
        <ele>1256.1</ele>
        <time>2021-08-22T07:23:39Z</time>
      </trkpt>
      <trkpt lat="42.79825" lon="1.7396">
        <ele>1257.54</ele>
        <time>2021-08-22T07:23:50Z</time>
      </trkpt>
      <trkpt lat="42.79832" lon="1.73953">
        <ele>1258.98</ele>
        <time>2021-08-22T07:24:01Z</time>
      </trkpt>
      <trkpt lat="42.79838" lon="1.73947">
        <ele>1260.91</ele>
        <time>2021-08-22T07:24:13Z</time>
      </trkpt>
      <trkpt lat="42.79841" lon="1.73939">
        <ele>1262.83</ele>
        <time>2021-08-22T07:24:26Z</time>
      </trkpt>
      <trkpt lat="42.79845" lon="1.73935">
        <ele>1264.75</ele>
        <time>2021-08-22T07:24:37Z</time>
      </trkpt>
      <trkpt lat="42.79852" lon="1.73932">
        <ele>1266.67</ele>
        <time>2021-08-22T07:24:50Z</time>
      </trkpt>
      <trkpt lat="42.79859" lon="1.73927">
        <ele>1268.6</ele>
        <time>2021-08-22T07:25:03Z</time>
      </trkpt>
      <trkpt lat="42.79866" lon="1.7392">
        <ele>1269.56</ele>
        <time>2021-08-22T07:25:14Z</time>
      </trkpt>
      <trkpt lat="42.79873" lon="1.73915">
        <ele>1270.52</ele>
        <time>2021-08-22T07:25:25Z</time>
      </trkpt>
      <trkpt lat="42.79878" lon="1.73909">
        <ele>1271.96</ele>
        <time>2021-08-22T07:25:36Z</time>
      </trkpt>
      <trkpt lat="42.79885" lon="1.73904">
        <ele>1272.92</ele>
        <time>2021-08-22T07:25:47Z</time>
      </trkpt>
      <trkpt lat="42.7989" lon="1.73898">
        <ele>1274.85</ele>
        <time>2021-08-22T07:26:00Z</time>
      </trkpt>
      <trkpt lat="42.79896" lon="1.73893">
        <ele>1275.81</ele>
        <time>2021-08-22T07:26:11Z</time>
      </trkpt>
      <trkpt lat="42.79903" lon="1.73891">
        <ele>1277.25</ele>
        <time>2021-08-22T07:26:21Z</time>
      </trkpt>
      <trkpt lat="42.7991" lon="1.73892">
        <ele>1278.69</ele>
        <time>2021-08-22T07:26:32Z</time>
      </trkpt>
      <trkpt lat="42.79917" lon="1.7389">
        <ele>1280.13</ele>
        <time>2021-08-22T07:26:43Z</time>
      </trkpt>
      <trkpt lat="42.79924" lon="1.73891">
        <ele>1282.06</ele>
        <time>2021-08-22T07:26:54Z</time>
      </trkpt>
      <trkpt lat="42.79928" lon="1.73894">
        <ele>1283.02</ele>
        <time>2021-08-22T07:27:05Z</time>
      </trkpt>
      <trkpt lat="42.79927" lon="1.73891">
        <ele>1283.98</ele>
        <time>2021-08-22T07:27:24Z</time>
      </trkpt>
      <trkpt lat="42.79934" lon="1.73896">
        <ele>1284.46</ele>
        <time>2021-08-22T07:27:34Z</time>
      </trkpt>
      <trkpt lat="42.79942" lon="1.73897">
        <ele>1285.9</ele>
        <time>2021-08-22T07:27:44Z</time>
      </trkpt>
      <trkpt lat="42.79949" lon="1.73903">
        <ele>1287.34</ele>
        <time>2021-08-22T07:27:55Z</time>
      </trkpt>
      <trkpt lat="42.79955" lon="1.73905">
        <ele>1288.78</ele>
        <time>2021-08-22T07:28:05Z</time>
      </trkpt>
      <trkpt lat="42.7996" lon="1.73905">
        <ele>1289.27</ele>
        <time>2021-08-22T07:28:18Z</time>
      </trkpt>
      <trkpt lat="42.79966" lon="1.73909">
        <ele>1290.71</ele>
        <time>2021-08-22T07:28:28Z</time>
      </trkpt>
      <trkpt lat="42.79971" lon="1.73913">
        <ele>1292.15</ele>
        <time>2021-08-22T07:28:39Z</time>
      </trkpt>
      <trkpt lat="42.79975" lon="1.7392">
        <ele>1293.11</ele>
        <time>2021-08-22T07:28:46Z</time>
      </trkpt>
      <trkpt lat="42.79975" lon="1.73922">
        <ele>1293.11</ele>
        <time>2021-08-22T07:28:57Z</time>
      </trkpt>
      <trkpt lat="42.79977" lon="1.73922">
        <ele>1293.59</ele>
        <time>2021-08-22T07:29:18Z</time>
      </trkpt>
      <trkpt lat="42.79982" lon="1.7393">
        <ele>1294.07</ele>
        <time>2021-08-22T07:29:27Z</time>
      </trkpt>
      <trkpt lat="42.79989" lon="1.73939">
        <ele>1294.55</ele>
        <time>2021-08-22T07:29:38Z</time>
      </trkpt>
      <trkpt lat="42.79993" lon="1.73945">
        <ele>1295.99</ele>
        <time>2021-08-22T07:29:47Z</time>
      </trkpt>
      <trkpt lat="42.8" lon="1.7395">
        <ele>1297.44</ele>
        <time>2021-08-22T07:29:57Z</time>
      </trkpt>
      <trkpt lat="42.80007" lon="1.73957">
        <ele>1298.4</ele>
        <time>2021-08-22T07:30:07Z</time>
      </trkpt>
      <trkpt lat="42.80013" lon="1.73964">
        <ele>1299.36</ele>
        <time>2021-08-22T07:30:16Z</time>
      </trkpt>
      <trkpt lat="42.80019" lon="1.73974">
        <ele>1300.8</ele>
        <time>2021-08-22T07:30:27Z</time>
      </trkpt>
      <trkpt lat="42.80023" lon="1.73983">
        <ele>1301.76</ele>
        <time>2021-08-22T07:30:39Z</time>
      </trkpt>
      <trkpt lat="42.80025" lon="1.7399">
        <ele>1302.72</ele>
        <time>2021-08-22T07:30:49Z</time>
      </trkpt>
      <trkpt lat="42.80026" lon="1.73998">
        <ele>1304.65</ele>
        <time>2021-08-22T07:30:59Z</time>
      </trkpt>
      <trkpt lat="42.80028" lon="1.74005">
        <ele>1305.61</ele>
        <time>2021-08-22T07:31:10Z</time>
      </trkpt>
      <trkpt lat="42.80033" lon="1.74012">
        <ele>1307.53</ele>
        <time>2021-08-22T07:31:20Z</time>
      </trkpt>
      <trkpt lat="42.80038" lon="1.74017">
        <ele>1308.49</ele>
        <time>2021-08-22T07:31:31Z</time>
      </trkpt>
      <trkpt lat="42.8004" lon="1.74024">
        <ele>1309.93</ele>
        <time>2021-08-22T07:31:41Z</time>
      </trkpt>
      <trkpt lat="42.80045" lon="1.74025">
        <ele>1310.41</ele>
        <time>2021-08-22T07:31:52Z</time>
      </trkpt>
      <trkpt lat="42.80049" lon="1.74025">
        <ele>1311.86</ele>
        <time>2021-08-22T07:31:59Z</time>
      </trkpt>
      <trkpt lat="42.80055" lon="1.74029">
        <ele>1313.78</ele>
        <time>2021-08-22T07:32:11Z</time>
      </trkpt>
      <trkpt lat="42.80059" lon="1.74034">
        <ele>1314.74</ele>
        <time>2021-08-22T07:32:21Z</time>
      </trkpt>
      <trkpt lat="42.80063" lon="1.74038">
        <ele>1316.66</ele>
        <time>2021-08-22T07:32:32Z</time>
      </trkpt>
      <trkpt lat="42.80066" lon="1.74046">
        <ele>1318.1</ele>
        <time>2021-08-22T07:32:43Z</time>
      </trkpt>
      <trkpt lat="42.80071" lon="1.74045">
        <ele>1319.55</ele>
        <time>2021-08-22T07:32:54Z</time>
      </trkpt>
      <trkpt lat="42.80074" lon="1.74047">
        <ele>1320.03</ele>
        <time>2021-08-22T07:33:04Z</time>
      </trkpt>
      <trkpt lat="42.80078" lon="1.7405">
        <ele>1321.47</ele>
        <time>2021-08-22T07:33:13Z</time>
      </trkpt>
      <trkpt lat="42.80083" lon="1.74052">
        <ele>1322.91</ele>
        <time>2021-08-22T07:33:22Z</time>
      </trkpt>
      <trkpt lat="42.80085" lon="1.7405">
        <ele>1323.87</ele>
        <time>2021-08-22T07:33:32Z</time>
      </trkpt>
      <trkpt lat="42.80088" lon="1.74045">
        <ele>1325.8</ele>
        <time>2021-08-22T07:33:45Z</time>
      </trkpt>
      <trkpt lat="42.80091" lon="1.74045">
        <ele>1326.76</ele>
        <time>2021-08-22T07:33:54Z</time>
      </trkpt>
      <trkpt lat="42.80095" lon="1.74047">
        <ele>1327.72</ele>
        <time>2021-08-22T07:34:02Z</time>
      </trkpt>
      <trkpt lat="42.80098" lon="1.74049">
        <ele>1329.16</ele>
        <time>2021-08-22T07:34:14Z</time>
      </trkpt>
      <trkpt lat="42.80104" lon="1.7405">
        <ele>1330.6</ele>
        <time>2021-08-22T07:34:25Z</time>
      </trkpt>
      <trkpt lat="42.8011" lon="1.74048">
        <ele>1331.56</ele>
        <time>2021-08-22T07:34:35Z</time>
      </trkpt>
      <trkpt lat="42.80114" lon="1.74044">
        <ele>1333.01</ele>
        <time>2021-08-22T07:34:46Z</time>
      </trkpt>
      <trkpt lat="42.80117" lon="1.74039">
        <ele>1334.93</ele>
        <time>2021-08-22T07:34:56Z</time>
      </trkpt>
      <trkpt lat="42.80114" lon="1.7403">
        <ele>1336.37</ele>
        <time>2021-08-22T07:35:07Z</time>
      </trkpt>
      <trkpt lat="42.8012" lon="1.7403">
        <ele>1338.77</ele>
        <time>2021-08-22T07:35:22Z</time>
      </trkpt>
      <trkpt lat="42.80124" lon="1.74028">
        <ele>1340.7</ele>
        <time>2021-08-22T07:35:32Z</time>
      </trkpt>
      <trkpt lat="42.80129" lon="1.74028">
        <ele>1341.66</ele>
        <time>2021-08-22T07:35:42Z</time>
      </trkpt>
      <trkpt lat="42.80135" lon="1.74026">
        <ele>1343.1</ele>
        <time>2021-08-22T07:35:52Z</time>
      </trkpt>
      <trkpt lat="42.8014" lon="1.74026">
        <ele>1344.54</ele>
        <time>2021-08-22T07:36:02Z</time>
      </trkpt>
      <trkpt lat="42.80145" lon="1.74026">
        <ele>1345.5</ele>
        <time>2021-08-22T07:36:11Z</time>
      </trkpt>
      <trkpt lat="42.80148" lon="1.74024">
        <ele>1347.91</ele>
        <time>2021-08-22T07:36:21Z</time>
      </trkpt>
      <trkpt lat="42.80153" lon="1.74025">
        <ele>1348.87</ele>
        <time>2021-08-22T07:36:31Z</time>
      </trkpt>
      <trkpt lat="42.8016" lon="1.74028">
        <ele>1350.31</ele>
        <time>2021-08-22T07:36:42Z</time>
      </trkpt>
      <trkpt lat="42.80169" lon="1.74028">
        <ele>1351.75</ele>
        <time>2021-08-22T07:36:54Z</time>
      </trkpt>
      <trkpt lat="42.80175" lon="1.74031">
        <ele>1353.19</ele>
        <time>2021-08-22T07:37:04Z</time>
      </trkpt>
      <trkpt lat="42.80182" lon="1.74033">
        <ele>1353.67</ele>
        <time>2021-08-22T07:37:15Z</time>
      </trkpt>
      <trkpt lat="42.80187" lon="1.74032">
        <ele>1356.08</ele>
        <time>2021-08-22T07:37:26Z</time>
      </trkpt>
      <trkpt lat="42.80192" lon="1.74033">
        <ele>1357.04</ele>
        <time>2021-08-22T07:37:36Z</time>
      </trkpt>
      <trkpt lat="42.80198" lon="1.74034">
        <ele>1358.96</ele>
        <time>2021-08-22T07:37:47Z</time>
      </trkpt>
      <trkpt lat="42.80204" lon="1.74033">
        <ele>1359.92</ele>
        <time>2021-08-22T07:37:57Z</time>
      </trkpt>
      <trkpt lat="42.8021" lon="1.74032">
        <ele>1361.36</ele>
        <time>2021-08-22T07:38:09Z</time>
      </trkpt>
      <trkpt lat="42.80214" lon="1.7403">
        <ele>1363.29</ele>
        <time>2021-08-22T07:38:20Z</time>
      </trkpt>
      <trkpt lat="42.80219" lon="1.74027">
        <ele>1364.73</ele>
        <time>2021-08-22T07:38:30Z</time>
      </trkpt>
      <trkpt lat="42.80225" lon="1.74029">
        <ele>1366.17</ele>
        <time>2021-08-22T07:38:42Z</time>
      </trkpt>
      <trkpt lat="42.80233" lon="1.74034">
        <ele>1367.61</ele>
        <time>2021-08-22T07:38:55Z</time>
      </trkpt>
      <trkpt lat="42.80236" lon="1.74036">
        <ele>1367.61</ele>
        <time>2021-08-22T07:38:59Z</time>
      </trkpt>
      <trkpt lat="42.80246" lon="1.74041">
        <ele>1368.57</ele>
        <time>2021-08-22T07:39:11Z</time>
      </trkpt>
      <trkpt lat="42.80254" lon="1.74047">
        <ele>1369.54</ele>
        <time>2021-08-22T07:39:23Z</time>
      </trkpt>
      <trkpt lat="42.80262" lon="1.74052">
        <ele>1370.5</ele>
        <time>2021-08-22T07:39:34Z</time>
      </trkpt>
      <trkpt lat="42.80264" lon="1.74054">
        <ele>1370.98</ele>
        <time>2021-08-22T07:39:37Z</time>
      </trkpt>
      <trkpt lat="42.80271" lon="1.74058">
        <ele>1371.94</ele>
        <time>2021-08-22T07:39:47Z</time>
      </trkpt>
      <trkpt lat="42.80272" lon="1.74058">
        <ele>1371.94</ele>
        <time>2021-08-22T07:39:48Z</time>
      </trkpt>
      <trkpt lat="42.8028" lon="1.74065">
        <ele>1373.38</ele>
        <time>2021-08-22T07:40:00Z</time>
      </trkpt>
      <trkpt lat="42.80283" lon="1.74071">
        <ele>1374.82</ele>
        <time>2021-08-22T07:40:09Z</time>
      </trkpt>
      <trkpt lat="42.80287" lon="1.7408">
        <ele>1375.78</ele>
        <time>2021-08-22T07:40:20Z</time>
      </trkpt>
      <trkpt lat="42.80289" lon="1.74086">
        <ele>1376.75</ele>
        <time>2021-08-22T07:40:29Z</time>
      </trkpt>
      <trkpt lat="42.80288" lon="1.74094">
        <ele>1378.19</ele>
        <time>2021-08-22T07:40:40Z</time>
      </trkpt>
      <trkpt lat="42.80287" lon="1.74102">
        <ele>1379.15</ele>
        <time>2021-08-22T07:40:50Z</time>
      </trkpt>
      <trkpt lat="42.80286" lon="1.74111">
        <ele>1380.59</ele>
        <time>2021-08-22T07:41:00Z</time>
      </trkpt>
      <trkpt lat="42.80286" lon="1.74119">
        <ele>1382.03</ele>
        <time>2021-08-22T07:41:10Z</time>
      </trkpt>
      <trkpt lat="42.80288" lon="1.74128">
        <ele>1382.99</ele>
        <time>2021-08-22T07:41:20Z</time>
      </trkpt>
      <trkpt lat="42.80291" lon="1.74134">
        <ele>1384.44</ele>
        <time>2021-08-22T07:41:29Z</time>
      </trkpt>
      <trkpt lat="42.80292" lon="1.74141">
        <ele>1385.88</ele>
        <time>2021-08-22T07:41:39Z</time>
      </trkpt>
      <trkpt lat="42.80293" lon="1.7415">
        <ele>1387.32</ele>
        <time>2021-08-22T07:41:50Z</time>
      </trkpt>
      <trkpt lat="42.80295" lon="1.74157">
        <ele>1388.76</ele>
        <time>2021-08-22T07:42:01Z</time>
      </trkpt>
      <trkpt lat="42.80296" lon="1.74163">
        <ele>1389.72</ele>
        <time>2021-08-22T07:42:10Z</time>
      </trkpt>
      <trkpt lat="42.80296" lon="1.7417">
        <ele>1391.17</ele>
        <time>2021-08-22T07:42:20Z</time>
      </trkpt>
      <trkpt lat="42.80297" lon="1.74178">
        <ele>1392.61</ele>
        <time>2021-08-22T07:42:30Z</time>
      </trkpt>
      <trkpt lat="42.80297" lon="1.74184">
        <ele>1393.57</ele>
        <time>2021-08-22T07:42:40Z</time>
      </trkpt>
      <trkpt lat="42.80299" lon="1.74194">
        <ele>1394.53</ele>
        <time>2021-08-22T07:42:51Z</time>
      </trkpt>
      <trkpt lat="42.803" lon="1.74203">
        <ele>1395.49</ele>
        <time>2021-08-22T07:43:00Z</time>
      </trkpt>
      <trkpt lat="42.80302" lon="1.74212">
        <ele>1396.45</ele>
        <time>2021-08-22T07:43:10Z</time>
      </trkpt>
      <trkpt lat="42.80303" lon="1.74221">
        <ele>1397.41</ele>
        <time>2021-08-22T07:43:19Z</time>
      </trkpt>
      <trkpt lat="42.80304" lon="1.74232">
        <ele>1398.37</ele>
        <time>2021-08-22T07:43:30Z</time>
      </trkpt>
      <trkpt lat="42.80305" lon="1.7424">
        <ele>1399.34</ele>
        <time>2021-08-22T07:43:38Z</time>
      </trkpt>
      <trkpt lat="42.80309" lon="1.7425">
        <ele>1400.78</ele>
        <time>2021-08-22T07:43:49Z</time>
      </trkpt>
      <trkpt lat="42.80311" lon="1.74258">
        <ele>1401.74</ele>
        <time>2021-08-22T07:43:58Z</time>
      </trkpt>
      <trkpt lat="42.80313" lon="1.74265">
        <ele>1403.18</ele>
        <time>2021-08-22T07:44:08Z</time>
      </trkpt>
      <trkpt lat="42.80316" lon="1.74272">
        <ele>1404.62</ele>
        <time>2021-08-22T07:44:17Z</time>
      </trkpt>
      <trkpt lat="42.8032" lon="1.74278">
        <ele>1406.07</ele>
        <time>2021-08-22T07:44:28Z</time>
      </trkpt>
      <trkpt lat="42.80322" lon="1.74284">
        <ele>1407.99</ele>
        <time>2021-08-22T07:44:37Z</time>
      </trkpt>
      <trkpt lat="42.8032" lon="1.74285">
        <ele>1407.99</ele>
        <time>2021-08-22T07:44:48Z</time>
      </trkpt>
      <trkpt lat="42.80321" lon="1.74287">
        <ele>1409.43</ele>
        <time>2021-08-22T07:45:01Z</time>
      </trkpt>
      <trkpt lat="42.80321" lon="1.74296">
        <ele>1409.91</ele>
        <time>2021-08-22T07:45:11Z</time>
      </trkpt>
      <trkpt lat="42.80322" lon="1.74306">
        <ele>1410.87</ele>
        <time>2021-08-22T07:45:20Z</time>
      </trkpt>
      <trkpt lat="42.80325" lon="1.74313">
        <ele>1412.31</ele>
        <time>2021-08-22T07:45:30Z</time>
      </trkpt>
      <trkpt lat="42.80327" lon="1.7432">
        <ele>1413.76</ele>
        <time>2021-08-22T07:45:39Z</time>
      </trkpt>
      <trkpt lat="42.8033" lon="1.74329">
        <ele>1415.2</ele>
        <time>2021-08-22T07:45:50Z</time>
      </trkpt>
      <trkpt lat="42.80332" lon="1.74335">
        <ele>1416.64</ele>
        <time>2021-08-22T07:46:00Z</time>
      </trkpt>
      <trkpt lat="42.80334" lon="1.74344">
        <ele>1418.08</ele>
        <time>2021-08-22T07:46:12Z</time>
      </trkpt>
      <trkpt lat="42.80338" lon="1.74349">
        <ele>1419.04</ele>
        <time>2021-08-22T07:46:22Z</time>
      </trkpt>
      <trkpt lat="42.8034" lon="1.74358">
        <ele>1420.49</ele>
        <time>2021-08-22T07:46:32Z</time>
      </trkpt>
      <trkpt lat="42.80343" lon="1.74363">
        <ele>1421.93</ele>
        <time>2021-08-22T07:46:42Z</time>
      </trkpt>
      <trkpt lat="42.80347" lon="1.74369">
        <ele>1423.37</ele>
        <time>2021-08-22T07:46:53Z</time>
      </trkpt>
      <trkpt lat="42.80348" lon="1.74374">
        <ele>1424.33</ele>
        <time>2021-08-22T07:47:02Z</time>
      </trkpt>
      <trkpt lat="42.80351" lon="1.74382">
        <ele>1425.77</ele>
        <time>2021-08-22T07:47:15Z</time>
      </trkpt>
      <trkpt lat="42.80354" lon="1.74388">
        <ele>1427.21</ele>
        <time>2021-08-22T07:47:25Z</time>
      </trkpt>
      <trkpt lat="42.80358" lon="1.74393">
        <ele>1429.14</ele>
        <time>2021-08-22T07:47:36Z</time>
      </trkpt>
      <trkpt lat="42.80362" lon="1.74396">
        <ele>1430.58</ele>
        <time>2021-08-22T07:47:46Z</time>
      </trkpt>
      <trkpt lat="42.80366" lon="1.74399">
        <ele>1432.5</ele>
        <time>2021-08-22T07:47:58Z</time>
      </trkpt>
      <trkpt lat="42.80371" lon="1.74403">
        <ele>1433.46</ele>
        <time>2021-08-22T07:48:08Z</time>
      </trkpt>
      <trkpt lat="42.80374" lon="1.74406">
        <ele>1434.91</ele>
        <time>2021-08-22T07:48:17Z</time>
      </trkpt>
      <trkpt lat="42.80379" lon="1.74411">
        <ele>1436.35</ele>
        <time>2021-08-22T07:48:28Z</time>
      </trkpt>
      <trkpt lat="42.80384" lon="1.74417">
        <ele>1437.31</ele>
        <time>2021-08-22T07:48:39Z</time>
      </trkpt>
      <trkpt lat="42.80389" lon="1.74423">
        <ele>1439.23</ele>
        <time>2021-08-22T07:48:50Z</time>
      </trkpt>
      <trkpt lat="42.80392" lon="1.74425">
        <ele>1439.71</ele>
        <time>2021-08-22T07:48:59Z</time>
      </trkpt>
      <trkpt lat="42.80396" lon="1.7443">
        <ele>1441.15</ele>
        <time>2021-08-22T07:49:09Z</time>
      </trkpt>
      <trkpt lat="42.80401" lon="1.74435">
        <ele>1443.08</ele>
        <time>2021-08-22T07:49:20Z</time>
      </trkpt>
      <trkpt lat="42.80405" lon="1.7443">
        <ele>1444.52</ele>
        <time>2021-08-22T07:49:30Z</time>
      </trkpt>
      <trkpt lat="42.80402" lon="1.74425">
        <ele>1445</ele>
        <time>2021-08-22T07:49:35Z</time>
      </trkpt>
      <trkpt lat="42.80399" lon="1.74413">
        <ele>1446.44</ele>
        <time>2021-08-22T07:49:46Z</time>
      </trkpt>
      <trkpt lat="42.804" lon="1.74405">
        <ele>1447.88</ele>
        <time>2021-08-22T07:49:57Z</time>
      </trkpt>
      <trkpt lat="42.80401" lon="1.74398">
        <ele>1449.81</ele>
        <time>2021-08-22T07:50:07Z</time>
      </trkpt>
      <trkpt lat="42.80404" lon="1.74392">
        <ele>1452.21</ele>
        <time>2021-08-22T07:50:19Z</time>
      </trkpt>
      <trkpt lat="42.80404" lon="1.74386">
        <ele>1452.69</ele>
        <time>2021-08-22T07:50:31Z</time>
      </trkpt>
      <trkpt lat="42.80406" lon="1.74381">
        <ele>1454.13</ele>
        <time>2021-08-22T07:50:41Z</time>
      </trkpt>
      <trkpt lat="42.80408" lon="1.74383">
        <ele>1455.09</ele>
        <time>2021-08-22T07:50:53Z</time>
      </trkpt>
      <trkpt lat="42.80412" lon="1.74389">
        <ele>1456.05</ele>
        <time>2021-08-22T07:51:03Z</time>
      </trkpt>
      <trkpt lat="42.80417" lon="1.74391">
        <ele>1458.46</ele>
        <time>2021-08-22T07:51:14Z</time>
      </trkpt>
      <trkpt lat="42.80421" lon="1.74397">
        <ele>1458.94</ele>
        <time>2021-08-22T07:51:24Z</time>
      </trkpt>
      <trkpt lat="42.80426" lon="1.74396">
        <ele>1461.34</ele>
        <time>2021-08-22T07:51:34Z</time>
      </trkpt>
      <trkpt lat="42.80431" lon="1.74396">
        <ele>1463.26</ele>
        <time>2021-08-22T07:51:47Z</time>
      </trkpt>
      <trkpt lat="42.80435" lon="1.74402">
        <ele>1464.71</ele>
        <time>2021-08-22T07:51:59Z</time>
      </trkpt>
      <trkpt lat="42.80436" lon="1.74394">
        <ele>1466.63</ele>
        <time>2021-08-22T07:52:10Z</time>
      </trkpt>
      <trkpt lat="42.80436" lon="1.74382">
        <ele>1467.59</ele>
        <time>2021-08-22T07:52:21Z</time>
      </trkpt>
      <trkpt lat="42.80432" lon="1.74369">
        <ele>1468.55</ele>
        <time>2021-08-22T07:52:33Z</time>
      </trkpt>
      <trkpt lat="42.80429" lon="1.74355">
        <ele>1469.03</ele>
        <time>2021-08-22T07:52:44Z</time>
      </trkpt>
      <trkpt lat="42.8043" lon="1.74352">
        <ele>1470.47</ele>
        <time>2021-08-22T07:52:54Z</time>
      </trkpt>
      <trkpt lat="42.80431" lon="1.74347">
        <ele>1471.44</ele>
        <time>2021-08-22T07:53:03Z</time>
      </trkpt>
      <trkpt lat="42.80429" lon="1.74335">
        <ele>1472.88</ele>
        <time>2021-08-22T07:53:14Z</time>
      </trkpt>
      <trkpt lat="42.80429" lon="1.74326">
        <ele>1474.32</ele>
        <time>2021-08-22T07:53:24Z</time>
      </trkpt>
      <trkpt lat="42.80432" lon="1.74322">
        <ele>1475.76</ele>
        <time>2021-08-22T07:53:34Z</time>
      </trkpt>
      <trkpt lat="42.80437" lon="1.74329">
        <ele>1477.2</ele>
        <time>2021-08-22T07:53:44Z</time>
      </trkpt>
      <trkpt lat="42.80439" lon="1.74333">
        <ele>1478.65</ele>
        <time>2021-08-22T07:53:53Z</time>
      </trkpt>
      <trkpt lat="42.80444" lon="1.74339">
        <ele>1479.61</ele>
        <time>2021-08-22T07:54:03Z</time>
      </trkpt>
      <trkpt lat="42.80449" lon="1.74346">
        <ele>1481.05</ele>
        <time>2021-08-22T07:54:14Z</time>
      </trkpt>
      <trkpt lat="42.80453" lon="1.7435">
        <ele>1482.97</ele>
        <time>2021-08-22T07:54:25Z</time>
      </trkpt>
      <trkpt lat="42.80457" lon="1.74353">
        <ele>1483.93</ele>
        <time>2021-08-22T07:54:34Z</time>
      </trkpt>
      <trkpt lat="42.80461" lon="1.74359">
        <ele>1485.85</ele>
        <time>2021-08-22T07:54:46Z</time>
      </trkpt>
      <trkpt lat="42.80465" lon="1.74362">
        <ele>1487.3</ele>
        <time>2021-08-22T07:54:56Z</time>
      </trkpt>
      <trkpt lat="42.8047" lon="1.74365">
        <ele>1488.74</ele>
        <time>2021-08-22T07:55:07Z</time>
      </trkpt>
      <trkpt lat="42.80474" lon="1.74368">
        <ele>1490.18</ele>
        <time>2021-08-22T07:55:15Z</time>
      </trkpt>
      <trkpt lat="42.80477" lon="1.74374">
        <ele>1491.62</ele>
        <time>2021-08-22T07:55:25Z</time>
      </trkpt>
      <trkpt lat="42.80481" lon="1.7438">
        <ele>1492.58</ele>
        <time>2021-08-22T07:55:36Z</time>
      </trkpt>
      <trkpt lat="42.80486" lon="1.74385">
        <ele>1494.03</ele>
        <time>2021-08-22T07:55:47Z</time>
      </trkpt>
      <trkpt lat="42.80489" lon="1.7439">
        <ele>1495.95</ele>
        <time>2021-08-22T07:55:58Z</time>
      </trkpt>
      <trkpt lat="42.80493" lon="1.74395">
        <ele>1497.39</ele>
        <time>2021-08-22T07:56:10Z</time>
      </trkpt>
      <trkpt lat="42.80498" lon="1.74397">
        <ele>1499.31</ele>
        <time>2021-08-22T07:56:22Z</time>
      </trkpt>
      <trkpt lat="42.80501" lon="1.74402">
        <ele>1501.24</ele>
        <time>2021-08-22T07:56:32Z</time>
      </trkpt>
      <trkpt lat="42.80505" lon="1.74408">
        <ele>1502.68</ele>
        <time>2021-08-22T07:56:44Z</time>
      </trkpt>
      <trkpt lat="42.80511" lon="1.74412">
        <ele>1504.12</ele>
        <time>2021-08-22T07:56:54Z</time>
      </trkpt>
      <trkpt lat="42.80516" lon="1.74418">
        <ele>1505.56</ele>
        <time>2021-08-22T07:57:05Z</time>
      </trkpt>
      <trkpt lat="42.80522" lon="1.7442">
        <ele>1507</ele>
        <time>2021-08-22T07:57:15Z</time>
      </trkpt>
      <trkpt lat="42.80528" lon="1.74426">
        <ele>1507.48</ele>
        <time>2021-08-22T07:57:26Z</time>
      </trkpt>
      <trkpt lat="42.80535" lon="1.74429">
        <ele>1508.93</ele>
        <time>2021-08-22T07:57:37Z</time>
      </trkpt>
      <trkpt lat="42.80543" lon="1.74439">
        <ele>1510.37</ele>
        <time>2021-08-22T07:57:49Z</time>
      </trkpt>
      <trkpt lat="42.80548" lon="1.74446">
        <ele>1511.81</ele>
        <time>2021-08-22T07:57:59Z</time>
      </trkpt>
      <trkpt lat="42.80552" lon="1.74452">
        <ele>1512.77</ele>
        <time>2021-08-22T07:58:08Z</time>
      </trkpt>
      <trkpt lat="42.80558" lon="1.74458">
        <ele>1513.73</ele>
        <time>2021-08-22T07:58:19Z</time>
      </trkpt>
      <trkpt lat="42.80565" lon="1.74462">
        <ele>1515.66</ele>
        <time>2021-08-22T07:58:30Z</time>
      </trkpt>
      <trkpt lat="42.8057" lon="1.74463">
        <ele>1517.58</ele>
        <time>2021-08-22T07:58:41Z</time>
      </trkpt>
      <trkpt lat="42.80577" lon="1.74464">
        <ele>1519.5</ele>
        <time>2021-08-22T07:58:54Z</time>
      </trkpt>
      <trkpt lat="42.80581" lon="1.74467">
        <ele>1520.94</ele>
        <time>2021-08-22T07:59:06Z</time>
      </trkpt>
      <trkpt lat="42.80586" lon="1.74469">
        <ele>1523.35</ele>
        <time>2021-08-22T07:59:19Z</time>
      </trkpt>
      <trkpt lat="42.8059" lon="1.74468">
        <ele>1524.79</ele>
        <time>2021-08-22T07:59:29Z</time>
      </trkpt>
      <trkpt lat="42.80594" lon="1.74471">
        <ele>1525.75</ele>
        <time>2021-08-22T07:59:41Z</time>
      </trkpt>
      <trkpt lat="42.80599" lon="1.74472">
        <ele>1527.19</ele>
        <time>2021-08-22T07:59:51Z</time>
      </trkpt>
      <trkpt lat="42.80604" lon="1.74476">
        <ele>1529.11</ele>
        <time>2021-08-22T08:00:02Z</time>
      </trkpt>
      <trkpt lat="42.80611" lon="1.7448">
        <ele>1529.59</ele>
        <time>2021-08-22T08:00:12Z</time>
      </trkpt>
      <trkpt lat="42.80619" lon="1.74481">
        <ele>1531.52</ele>
        <time>2021-08-22T08:00:25Z</time>
      </trkpt>
      <trkpt lat="42.80624" lon="1.74484">
        <ele>1532.48</ele>
        <time>2021-08-22T08:00:36Z</time>
      </trkpt>
      <trkpt lat="42.8063" lon="1.74484">
        <ele>1534.4</ele>
        <time>2021-08-22T08:00:48Z</time>
      </trkpt>
      <trkpt lat="42.80635" lon="1.74482">
        <ele>1535.36</ele>
        <time>2021-08-22T08:01:00Z</time>
      </trkpt>
      <trkpt lat="42.80636" lon="1.74482">
        <ele>1536.8</ele>
        <time>2021-08-22T08:01:11Z</time>
      </trkpt>
      <trkpt lat="42.80637" lon="1.74479">
        <ele>1536.8</ele>
        <time>2021-08-22T08:01:31Z</time>
      </trkpt>
      <trkpt lat="42.80636" lon="1.74479">
        <ele>1534.88</ele>
        <time>2021-08-22T08:01:46Z</time>
      </trkpt>
      <trkpt lat="42.80638" lon="1.74477">
        <ele>1537.29</ele>
        <time>2021-08-22T08:01:54Z</time>
      </trkpt>
      <trkpt lat="42.80641" lon="1.74468">
        <ele>1539.69</ele>
        <time>2021-08-22T08:02:06Z</time>
      </trkpt>
      <trkpt lat="42.80642" lon="1.74461">
        <ele>1540.65</ele>
        <time>2021-08-22T08:02:16Z</time>
      </trkpt>
      <trkpt lat="42.80644" lon="1.74452">
        <ele>1543.05</ele>
        <time>2021-08-22T08:02:27Z</time>
      </trkpt>
      <trkpt lat="42.80641" lon="1.74444">
        <ele>1545.46</ele>
        <time>2021-08-22T08:02:38Z</time>
      </trkpt>
      <trkpt lat="42.80634" lon="1.74439">
        <ele>1545.94</ele>
        <time>2021-08-22T08:02:48Z</time>
      </trkpt>
      <trkpt lat="42.80631" lon="1.74432">
        <ele>1547.86</ele>
        <time>2021-08-22T08:02:59Z</time>
      </trkpt>
      <trkpt lat="42.80633" lon="1.74424">
        <ele>1549.78</ele>
        <time>2021-08-22T08:03:11Z</time>
      </trkpt>
      <trkpt lat="42.80631" lon="1.74417">
        <ele>1551.71</ele>
        <time>2021-08-22T08:03:22Z</time>
      </trkpt>
      <trkpt lat="42.8063" lon="1.74411">
        <ele>1552.67</ele>
        <time>2021-08-22T08:03:32Z</time>
      </trkpt>
      <trkpt lat="42.80629" lon="1.74404">
        <ele>1554.11</ele>
        <time>2021-08-22T08:03:43Z</time>
      </trkpt>
      <trkpt lat="42.80631" lon="1.74399">
        <ele>1556.03</ele>
        <time>2021-08-22T08:03:55Z</time>
      </trkpt>
      <trkpt lat="42.8063" lon="1.74395">
        <ele>1556.99</ele>
        <time>2021-08-22T08:04:04Z</time>
      </trkpt>
      <trkpt lat="42.80627" lon="1.74389">
        <ele>1558.92</ele>
        <time>2021-08-22T08:04:15Z</time>
      </trkpt>
      <trkpt lat="42.80629" lon="1.74383">
        <ele>1560.36</ele>
        <time>2021-08-22T08:04:27Z</time>
      </trkpt>
      <trkpt lat="42.80627" lon="1.74379">
        <ele>1562.28</ele>
        <time>2021-08-22T08:04:37Z</time>
      </trkpt>
      <trkpt lat="42.80628" lon="1.74374">
        <ele>1563.72</ele>
        <time>2021-08-22T08:04:48Z</time>
      </trkpt>
      <trkpt lat="42.80629" lon="1.74369">
        <ele>1564.68</ele>
        <time>2021-08-22T08:04:57Z</time>
      </trkpt>
      <trkpt lat="42.80627" lon="1.74366">
        <ele>1566.61</ele>
        <time>2021-08-22T08:05:08Z</time>
      </trkpt>
      <trkpt lat="42.80625" lon="1.74361">
        <ele>1567.57</ele>
        <time>2021-08-22T08:05:20Z</time>
      </trkpt>
      <trkpt lat="42.80623" lon="1.74355">
        <ele>1569.49</ele>
        <time>2021-08-22T08:05:31Z</time>
      </trkpt>
      <trkpt lat="42.80623" lon="1.7435">
        <ele>1570.45</ele>
        <time>2021-08-22T08:05:40Z</time>
      </trkpt>
      <trkpt lat="42.80621" lon="1.74348">
        <ele>1571.41</ele>
        <time>2021-08-22T08:05:48Z</time>
      </trkpt>
      <trkpt lat="42.80626" lon="1.74344">
        <ele>1572.85</ele>
        <time>2021-08-22T08:05:59Z</time>
      </trkpt>
      <trkpt lat="42.8063" lon="1.74344">
        <ele>1574.3</ele>
        <time>2021-08-22T08:06:08Z</time>
      </trkpt>
      <trkpt lat="42.80633" lon="1.74342">
        <ele>1575.26</ele>
        <time>2021-08-22T08:06:16Z</time>
      </trkpt>
      <trkpt lat="42.80635" lon="1.74337">
        <ele>1576.7</ele>
        <time>2021-08-22T08:06:27Z</time>
      </trkpt>
      <trkpt lat="42.80636" lon="1.74332">
        <ele>1578.14</ele>
        <time>2021-08-22T08:06:38Z</time>
      </trkpt>
      <trkpt lat="42.80637" lon="1.74326">
        <ele>1579.1</ele>
        <time>2021-08-22T08:06:48Z</time>
      </trkpt>
      <trkpt lat="42.8064" lon="1.74319">
        <ele>1580.54</ele>
        <time>2021-08-22T08:06:58Z</time>
      </trkpt>
      <trkpt lat="42.80646" lon="1.74312">
        <ele>1582.47</ele>
        <time>2021-08-22T08:07:09Z</time>
      </trkpt>
      <trkpt lat="42.80651" lon="1.7431">
        <ele>1583.91</ele>
        <time>2021-08-22T08:07:19Z</time>
      </trkpt>
      <trkpt lat="42.80656" lon="1.74306">
        <ele>1584.87</ele>
        <time>2021-08-22T08:07:30Z</time>
      </trkpt>
      <trkpt lat="42.80659" lon="1.74301">
        <ele>1586.31</ele>
        <time>2021-08-22T08:07:42Z</time>
      </trkpt>
      <trkpt lat="42.80663" lon="1.74297">
        <ele>1588.24</ele>
        <time>2021-08-22T08:07:53Z</time>
      </trkpt>
      <trkpt lat="42.80668" lon="1.74292">
        <ele>1589.2</ele>
        <time>2021-08-22T08:08:04Z</time>
      </trkpt>
      <trkpt lat="42.80672" lon="1.74284">
        <ele>1591.12</ele>
        <time>2021-08-22T08:08:15Z</time>
      </trkpt>
      <trkpt lat="42.80676" lon="1.74283">
        <ele>1592.56</ele>
        <time>2021-08-22T08:08:27Z</time>
      </trkpt>
      <trkpt lat="42.80681" lon="1.74279">
        <ele>1594.48</ele>
        <time>2021-08-22T08:08:40Z</time>
      </trkpt>
      <trkpt lat="42.80684" lon="1.74276">
        <ele>1595.45</ele>
        <time>2021-08-22T08:08:50Z</time>
      </trkpt>
      <trkpt lat="42.8069" lon="1.74275">
        <ele>1596.89</ele>
        <time>2021-08-22T08:09:01Z</time>
      </trkpt>
      <trkpt lat="42.80693" lon="1.7427">
        <ele>1598.81</ele>
        <time>2021-08-22T08:09:12Z</time>
      </trkpt>
      <trkpt lat="42.80697" lon="1.74265">
        <ele>1599.77</ele>
        <time>2021-08-22T08:09:22Z</time>
      </trkpt>
      <trkpt lat="42.80701" lon="1.74261">
        <ele>1601.69</ele>
        <time>2021-08-22T08:09:34Z</time>
      </trkpt>
      <trkpt lat="42.80707" lon="1.74256">
        <ele>1603.62</ele>
        <time>2021-08-22T08:09:46Z</time>
      </trkpt>
      <trkpt lat="42.80711" lon="1.74254">
        <ele>1605.06</ele>
        <time>2021-08-22T08:09:57Z</time>
      </trkpt>
      <trkpt lat="42.80715" lon="1.74258">
        <ele>1606.5</ele>
        <time>2021-08-22T08:10:07Z</time>
      </trkpt>
      <trkpt lat="42.80719" lon="1.74257">
        <ele>1607.46</ele>
        <time>2021-08-22T08:10:20Z</time>
      </trkpt>
      <trkpt lat="42.80723" lon="1.74253">
        <ele>1608.42</ele>
        <time>2021-08-22T08:10:30Z</time>
      </trkpt>
      <trkpt lat="42.80727" lon="1.74249">
        <ele>1610.35</ele>
        <time>2021-08-22T08:10:40Z</time>
      </trkpt>
      <trkpt lat="42.80732" lon="1.74244">
        <ele>1611.79</ele>
        <time>2021-08-22T08:10:51Z</time>
      </trkpt>
      <trkpt lat="42.80737" lon="1.7424">
        <ele>1613.71</ele>
        <time>2021-08-22T08:11:04Z</time>
      </trkpt>
      <trkpt lat="42.8074" lon="1.74237">
        <ele>1615.15</ele>
        <time>2021-08-22T08:11:15Z</time>
      </trkpt>
      <trkpt lat="42.80744" lon="1.7423">
        <ele>1616.59</ele>
        <time>2021-08-22T08:11:28Z</time>
      </trkpt>
      <trkpt lat="42.80748" lon="1.74223">
        <ele>1618.52</ele>
        <time>2021-08-22T08:11:40Z</time>
      </trkpt>
      <trkpt lat="42.80752" lon="1.7422">
        <ele>1619.48</ele>
        <time>2021-08-22T08:11:52Z</time>
      </trkpt>
      <trkpt lat="42.80756" lon="1.74213">
        <ele>1621.4</ele>
        <time>2021-08-22T08:12:03Z</time>
      </trkpt>
      <trkpt lat="42.80759" lon="1.74205">
        <ele>1622.84</ele>
        <time>2021-08-22T08:12:15Z</time>
      </trkpt>
      <trkpt lat="42.80762" lon="1.742">
        <ele>1624.77</ele>
        <time>2021-08-22T08:12:27Z</time>
      </trkpt>
      <trkpt lat="42.80764" lon="1.74192">
        <ele>1626.69</ele>
        <time>2021-08-22T08:12:39Z</time>
      </trkpt>
      <trkpt lat="42.80767" lon="1.74183">
        <ele>1628.13</ele>
        <time>2021-08-22T08:12:51Z</time>
      </trkpt>
      <trkpt lat="42.8077" lon="1.74175">
        <ele>1629.57</ele>
        <time>2021-08-22T08:13:03Z</time>
      </trkpt>
      <trkpt lat="42.80775" lon="1.74171">
        <ele>1631.98</ele>
        <time>2021-08-22T08:13:16Z</time>
      </trkpt>
      <trkpt lat="42.80777" lon="1.74169">
        <ele>1633.42</ele>
        <time>2021-08-22T08:13:26Z</time>
      </trkpt>
      <trkpt lat="42.80781" lon="1.7416">
        <ele>1634.86</ele>
        <time>2021-08-22T08:13:39Z</time>
      </trkpt>
      <trkpt lat="42.80784" lon="1.74154">
        <ele>1636.78</ele>
        <time>2021-08-22T08:13:53Z</time>
      </trkpt>
      <trkpt lat="42.80788" lon="1.74149">
        <ele>1639.19</ele>
        <time>2021-08-22T08:14:06Z</time>
      </trkpt>
      <trkpt lat="42.8079" lon="1.74141">
        <ele>1640.63</ele>
        <time>2021-08-22T08:14:19Z</time>
      </trkpt>
      <trkpt lat="42.80794" lon="1.74141">
        <ele>1642.07</ele>
        <time>2021-08-22T08:14:32Z</time>
      </trkpt>
      <trkpt lat="42.80793" lon="1.74137">
        <ele>1643.03</ele>
        <time>2021-08-22T08:14:43Z</time>
      </trkpt>
      <trkpt lat="42.80791" lon="1.74139">
        <ele>1643.03</ele>
        <time>2021-08-22T08:15:04Z</time>
      </trkpt>
      <trkpt lat="42.80792" lon="1.74135">
        <ele>1643.51</ele>
        <time>2021-08-22T08:15:23Z</time>
      </trkpt>
      <trkpt lat="42.80797" lon="1.74127">
        <ele>1646.4</ele>
        <time>2021-08-22T08:15:36Z</time>
      </trkpt>
      <trkpt lat="42.808" lon="1.7412">
        <ele>1647.84</ele>
        <time>2021-08-22T08:15:47Z</time>
      </trkpt>
      <trkpt lat="42.80804" lon="1.74114">
        <ele>1650.24</ele>
        <time>2021-08-22T08:15:59Z</time>
      </trkpt>
      <trkpt lat="42.80807" lon="1.74108">
        <ele>1651.68</ele>
        <time>2021-08-22T08:16:10Z</time>
      </trkpt>
      <trkpt lat="42.80806" lon="1.74103">
        <ele>1653.12</ele>
        <time>2021-08-22T08:16:23Z</time>
      </trkpt>
      <trkpt lat="42.80807" lon="1.74094">
        <ele>1654.57</ele>
        <time>2021-08-22T08:16:34Z</time>
      </trkpt>
      <trkpt lat="42.80806" lon="1.74084">
        <ele>1656.01</ele>
        <time>2021-08-22T08:16:45Z</time>
      </trkpt>
      <trkpt lat="42.80806" lon="1.74079">
        <ele>1657.45</ele>
        <time>2021-08-22T08:16:57Z</time>
      </trkpt>
      <trkpt lat="42.80806" lon="1.74072">
        <ele>1658.89</ele>
        <time>2021-08-22T08:17:09Z</time>
      </trkpt>
      <trkpt lat="42.80807" lon="1.74064">
        <ele>1660.33</ele>
        <time>2021-08-22T08:17:20Z</time>
      </trkpt>
      <trkpt lat="42.80808" lon="1.74056">
        <ele>1662.26</ele>
        <time>2021-08-22T08:17:29Z</time>
      </trkpt>
      <trkpt lat="42.8081" lon="1.74047">
        <ele>1664.66</ele>
        <time>2021-08-22T08:17:42Z</time>
      </trkpt>
      <trkpt lat="42.80811" lon="1.7404">
        <ele>1666.1</ele>
        <time>2021-08-22T08:17:53Z</time>
      </trkpt>
      <trkpt lat="42.80811" lon="1.74032">
        <ele>1667.06</ele>
        <time>2021-08-22T08:18:04Z</time>
      </trkpt>
      <trkpt lat="42.80812" lon="1.74026">
        <ele>1668.51</ele>
        <time>2021-08-22T08:18:13Z</time>
      </trkpt>
      <trkpt lat="42.80817" lon="1.74024">
        <ele>1670.43</ele>
        <time>2021-08-22T08:18:25Z</time>
      </trkpt>
      <trkpt lat="42.8082" lon="1.74027">
        <ele>1671.87</ele>
        <time>2021-08-22T08:18:34Z</time>
      </trkpt>
      <trkpt lat="42.80826" lon="1.74027">
        <ele>1673.31</ele>
        <time>2021-08-22T08:18:45Z</time>
      </trkpt>
      <trkpt lat="42.80831" lon="1.74024">
        <ele>1675.23</ele>
        <time>2021-08-22T08:18:56Z</time>
      </trkpt>
      <trkpt lat="42.80839" lon="1.74022">
        <ele>1676.2</ele>
        <time>2021-08-22T08:19:08Z</time>
      </trkpt>
      <trkpt lat="42.80844" lon="1.74022">
        <ele>1677.64</ele>
        <time>2021-08-22T08:19:20Z</time>
      </trkpt>
      <trkpt lat="42.80852" lon="1.74021">
        <ele>1679.08</ele>
        <time>2021-08-22T08:19:32Z</time>
      </trkpt>
      <trkpt lat="42.80858" lon="1.74028">
        <ele>1680.04</ele>
        <time>2021-08-22T08:19:43Z</time>
      </trkpt>
      <trkpt lat="42.80867" lon="1.74035">
        <ele>1681</ele>
        <time>2021-08-22T08:19:54Z</time>
      </trkpt>
      <trkpt lat="42.80881" lon="1.74039">
        <ele>1681.96</ele>
        <time>2021-08-22T08:20:07Z</time>
      </trkpt>
      <trkpt lat="42.80889" lon="1.74042">
        <ele>1682.44</ele>
        <time>2021-08-22T08:20:14Z</time>
      </trkpt>
      <trkpt lat="42.80901" lon="1.74047">
        <ele>1683.89</ele>
        <time>2021-08-22T08:20:26Z</time>
      </trkpt>
      <trkpt lat="42.80907" lon="1.7405">
        <ele>1684.37</ele>
        <time>2021-08-22T08:20:36Z</time>
      </trkpt>
      <trkpt lat="42.80916" lon="1.74055">
        <ele>1685.81</ele>
        <time>2021-08-22T08:20:47Z</time>
      </trkpt>
      <trkpt lat="42.80917" lon="1.74056">
        <ele>1686.77</ele>
        <time>2021-08-22T08:20:49Z</time>
      </trkpt>
      <trkpt lat="42.80928" lon="1.74056">
        <ele>1687.25</ele>
        <time>2021-08-22T08:21:01Z</time>
      </trkpt>
      <trkpt lat="42.80934" lon="1.74059">
        <ele>1688.69</ele>
        <time>2021-08-22T08:21:10Z</time>
      </trkpt>
      <trkpt lat="42.80945" lon="1.74064">
        <ele>1689.65</ele>
        <time>2021-08-22T08:21:24Z</time>
      </trkpt>
      <trkpt lat="42.80953" lon="1.74067">
        <ele>1691.1</ele>
        <time>2021-08-22T08:21:36Z</time>
      </trkpt>
      <trkpt lat="42.80956" lon="1.74072">
        <ele>1692.06</ele>
        <time>2021-08-22T08:21:46Z</time>
      </trkpt>
      <trkpt lat="42.80964" lon="1.74072">
        <ele>1692.06</ele>
        <time>2021-08-22T08:21:55Z</time>
      </trkpt>
      <trkpt lat="42.80966" lon="1.74073">
        <ele>1692.06</ele>
        <time>2021-08-22T08:22:06Z</time>
      </trkpt>
      <trkpt lat="42.80965" lon="1.74072">
        <ele>1692.54</ele>
        <time>2021-08-22T08:22:28Z</time>
      </trkpt>
      <trkpt lat="42.80965" lon="1.74072">
        <ele>1693.02</ele>
        <time>2021-08-22T08:22:51Z</time>
      </trkpt>
      <trkpt lat="42.80963" lon="1.74071">
        <ele>1693.02</ele>
        <time>2021-08-22T08:23:06Z</time>
      </trkpt>
      <trkpt lat="42.80964" lon="1.74071">
        <ele>1693.02</ele>
        <time>2021-08-22T08:23:27Z</time>
      </trkpt>
      <trkpt lat="42.80965" lon="1.74073">
        <ele>1693.02</ele>
        <time>2021-08-22T08:23:38Z</time>
      </trkpt>
      <trkpt lat="42.80966" lon="1.74072">
        <ele>1693.02</ele>
        <time>2021-08-22T08:23:59Z</time>
      </trkpt>
      <trkpt lat="42.80967" lon="1.74074">
        <ele>1693.02</ele>
        <time>2021-08-22T08:24:09Z</time>
      </trkpt>
      <trkpt lat="42.8098" lon="1.7408">
        <ele>1693.98</ele>
        <time>2021-08-22T08:24:21Z</time>
      </trkpt>
      <trkpt lat="42.80989" lon="1.74087">
        <ele>1695.42</ele>
        <time>2021-08-22T08:24:33Z</time>
      </trkpt>
      <trkpt lat="42.80993" lon="1.74087">
        <ele>1695.9</ele>
        <time>2021-08-22T08:24:37Z</time>
      </trkpt>
      <trkpt lat="42.80999" lon="1.7409">
        <ele>1696.86</ele>
        <time>2021-08-22T08:24:43Z</time>
      </trkpt>
      <trkpt lat="42.81012" lon="1.74093">
        <ele>1697.83</ele>
        <time>2021-08-22T08:24:55Z</time>
      </trkpt>
      <trkpt lat="42.81023" lon="1.74099">
        <ele>1698.79</ele>
        <time>2021-08-22T08:25:07Z</time>
      </trkpt>
      <trkpt lat="42.8103" lon="1.74101">
        <ele>1698.79</ele>
        <time>2021-08-22T08:25:13Z</time>
      </trkpt>
      <trkpt lat="42.81044" lon="1.74102">
        <ele>1700.23</ele>
        <time>2021-08-22T08:25:26Z</time>
      </trkpt>
      <trkpt lat="42.81057" lon="1.74107">
        <ele>1701.19</ele>
        <time>2021-08-22T08:25:40Z</time>
      </trkpt>
      <trkpt lat="42.81067" lon="1.74111">
        <ele>1703.11</ele>
        <time>2021-08-22T08:25:53Z</time>
      </trkpt>
      <trkpt lat="42.81079" lon="1.74111">
        <ele>1703.11</ele>
        <time>2021-08-22T08:26:06Z</time>
      </trkpt>
      <trkpt lat="42.81087" lon="1.74116">
        <ele>1704.07</ele>
        <time>2021-08-22T08:26:18Z</time>
      </trkpt>
      <trkpt lat="42.81093" lon="1.7412">
        <ele>1705.52</ele>
        <time>2021-08-22T08:26:29Z</time>
      </trkpt>
      <trkpt lat="42.81101" lon="1.74125">
        <ele>1707.92</ele>
        <time>2021-08-22T08:26:41Z</time>
      </trkpt>
      <trkpt lat="42.81106" lon="1.74128">
        <ele>1708.88</ele>
        <time>2021-08-22T08:26:50Z</time>
      </trkpt>
      <trkpt lat="42.81114" lon="1.74126">
        <ele>1710.32</ele>
        <time>2021-08-22T08:27:01Z</time>
      </trkpt>
      <trkpt lat="42.81123" lon="1.74122">
        <ele>1710.32</ele>
        <time>2021-08-22T08:27:11Z</time>
      </trkpt>
      <trkpt lat="42.81127" lon="1.74125">
        <ele>1710.32</ele>
        <time>2021-08-22T08:27:16Z</time>
      </trkpt>
      <trkpt lat="42.81139" lon="1.74129">
        <ele>1708.88</ele>
        <time>2021-08-22T08:27:28Z</time>
      </trkpt>
      <trkpt lat="42.81144" lon="1.74137">
        <ele>1709.36</ele>
        <time>2021-08-22T08:27:40Z</time>
      </trkpt>
      <trkpt lat="42.81148" lon="1.74141">
        <ele>1709.36</ele>
        <time>2021-08-22T08:27:48Z</time>
      </trkpt>
      <trkpt lat="42.81155" lon="1.74144">
        <ele>1707.92</ele>
        <time>2021-08-22T08:27:59Z</time>
      </trkpt>
      <trkpt lat="42.81159" lon="1.74148">
        <ele>1708.4</ele>
        <time>2021-08-22T08:28:13Z</time>
      </trkpt>
      <trkpt lat="42.8116" lon="1.74151">
        <ele>1709.84</ele>
        <time>2021-08-22T08:28:24Z</time>
      </trkpt>
      <trkpt lat="42.81162" lon="1.74152">
        <ele>1708.4</ele>
        <time>2021-08-22T08:28:26Z</time>
      </trkpt>
      <trkpt lat="42.81169" lon="1.74155">
        <ele>1708.4</ele>
        <time>2021-08-22T08:28:36Z</time>
      </trkpt>
      <trkpt lat="42.8118" lon="1.74161">
        <ele>1709.84</ele>
        <time>2021-08-22T08:28:49Z</time>
      </trkpt>
      <trkpt lat="42.81187" lon="1.74164">
        <ele>1711.76</ele>
        <time>2021-08-22T08:28:59Z</time>
      </trkpt>
      <trkpt lat="42.81191" lon="1.7417">
        <ele>1712.73</ele>
        <time>2021-08-22T08:29:09Z</time>
      </trkpt>
      <trkpt lat="42.81196" lon="1.74173">
        <ele>1713.21</ele>
        <time>2021-08-22T08:29:18Z</time>
      </trkpt>
      <trkpt lat="42.81201" lon="1.74177">
        <ele>1714.17</ele>
        <time>2021-08-22T08:29:28Z</time>
      </trkpt>
      <trkpt lat="42.81202" lon="1.74177">
        <ele>1714.17</ele>
        <time>2021-08-22T08:29:31Z</time>
      </trkpt>
      <trkpt lat="42.81205" lon="1.74177">
        <ele>1714.17</ele>
        <time>2021-08-22T08:29:35Z</time>
      </trkpt>
      <trkpt lat="42.81207" lon="1.74177">
        <ele>1714.17</ele>
        <time>2021-08-22T08:29:37Z</time>
      </trkpt>
      <trkpt lat="42.81215" lon="1.74182">
        <ele>1714.65</ele>
        <time>2021-08-22T08:29:48Z</time>
      </trkpt>
      <trkpt lat="42.81219" lon="1.74184">
        <ele>1716.09</ele>
        <time>2021-08-22T08:29:57Z</time>
      </trkpt>
      <trkpt lat="42.81225" lon="1.74191">
        <ele>1717.53</ele>
        <time>2021-08-22T08:30:07Z</time>
      </trkpt>
      <trkpt lat="42.81229" lon="1.74193">
        <ele>1718.01</ele>
        <time>2021-08-22T08:30:13Z</time>
      </trkpt>
      <trkpt lat="42.81231" lon="1.74197">
        <ele>1718.01</ele>
        <time>2021-08-22T08:30:17Z</time>
      </trkpt>
      <trkpt lat="42.81241" lon="1.74209">
        <ele>1716.57</ele>
        <time>2021-08-22T08:30:30Z</time>
      </trkpt>
      <trkpt lat="42.81246" lon="1.74211">
        <ele>1715.61</ele>
        <time>2021-08-22T08:30:41Z</time>
      </trkpt>
      <trkpt lat="42.81248" lon="1.74213">
        <ele>1714.65</ele>
        <time>2021-08-22T08:30:51Z</time>
      </trkpt>
      <trkpt lat="42.81252" lon="1.74213">
        <ele>1713.21</ele>
        <time>2021-08-22T08:31:00Z</time>
      </trkpt>
      <trkpt lat="42.81258" lon="1.74212">
        <ele>1712.25</ele>
        <time>2021-08-22T08:31:10Z</time>
      </trkpt>
      <trkpt lat="42.81266" lon="1.74214">
        <ele>1710.8</ele>
        <time>2021-08-22T08:31:21Z</time>
      </trkpt>
      <trkpt lat="42.81272" lon="1.74213">
        <ele>1709.84</ele>
        <time>2021-08-22T08:31:28Z</time>
      </trkpt>
      <trkpt lat="42.81284" lon="1.74216">
        <ele>1708.88</ele>
        <time>2021-08-22T08:31:41Z</time>
      </trkpt>
      <trkpt lat="42.8129" lon="1.74217">
        <ele>1708.88</ele>
        <time>2021-08-22T08:31:51Z</time>
      </trkpt>
      <trkpt lat="42.81293" lon="1.74219">
        <ele>1708.88</ele>
        <time>2021-08-22T08:32:01Z</time>
      </trkpt>
      <trkpt lat="42.81292" lon="1.74222">
        <ele>1708.88</ele>
        <time>2021-08-22T08:32:21Z</time>
      </trkpt>
      <trkpt lat="42.81293" lon="1.74219">
        <ele>1708.88</ele>
        <time>2021-08-22T08:32:37Z</time>
      </trkpt>
      <trkpt lat="42.81298" lon="1.74222">
        <ele>1710.32</ele>
        <time>2021-08-22T08:32:51Z</time>
      </trkpt>
      <trkpt lat="42.81305" lon="1.74228">
        <ele>1711.28</ele>
        <time>2021-08-22T08:33:02Z</time>
      </trkpt>
      <trkpt lat="42.81308" lon="1.74229">
        <ele>1712.73</ele>
        <time>2021-08-22T08:33:11Z</time>
      </trkpt>
      <trkpt lat="42.81313" lon="1.74229">
        <ele>1715.13</ele>
        <time>2021-08-22T08:33:23Z</time>
      </trkpt>
      <trkpt lat="42.81317" lon="1.74232">
        <ele>1717.05</ele>
        <time>2021-08-22T08:33:32Z</time>
      </trkpt>
      <trkpt lat="42.8132" lon="1.74231">
        <ele>1718.49</ele>
        <time>2021-08-22T08:33:45Z</time>
      </trkpt>
      <trkpt lat="42.81322" lon="1.74238">
        <ele>1719.46</ele>
        <time>2021-08-22T08:33:55Z</time>
      </trkpt>
      <trkpt lat="42.81329" lon="1.74247">
        <ele>1719.46</ele>
        <time>2021-08-22T08:34:06Z</time>
      </trkpt>
      <trkpt lat="42.81336" lon="1.74253">
        <ele>1720.42</ele>
        <time>2021-08-22T08:34:16Z</time>
      </trkpt>
      <trkpt lat="42.81343" lon="1.74256">
        <ele>1721.38</ele>
        <time>2021-08-22T08:34:26Z</time>
      </trkpt>
      <trkpt lat="42.8135" lon="1.74259">
        <ele>1722.34</ele>
        <time>2021-08-22T08:34:36Z</time>
      </trkpt>
      <trkpt lat="42.81358" lon="1.74262">
        <ele>1723.78</ele>
        <time>2021-08-22T08:34:47Z</time>
      </trkpt>
      <trkpt lat="42.81365" lon="1.74267">
        <ele>1724.26</ele>
        <time>2021-08-22T08:34:57Z</time>
      </trkpt>
      <trkpt lat="42.81371" lon="1.74271">
        <ele>1725.22</ele>
        <time>2021-08-22T08:35:08Z</time>
      </trkpt>
      <trkpt lat="42.8138" lon="1.74271">
        <ele>1726.67</ele>
        <time>2021-08-22T08:35:20Z</time>
      </trkpt>
      <trkpt lat="42.81387" lon="1.74275">
        <ele>1727.63</ele>
        <time>2021-08-22T08:35:30Z</time>
      </trkpt>
      <trkpt lat="42.81394" lon="1.74281">
        <ele>1729.55</ele>
        <time>2021-08-22T08:35:41Z</time>
      </trkpt>
      <trkpt lat="42.81398" lon="1.74287">
        <ele>1730.99</ele>
        <time>2021-08-22T08:35:53Z</time>
      </trkpt>
      <trkpt lat="42.81405" lon="1.74292">
        <ele>1732.43</ele>
        <time>2021-08-22T08:36:03Z</time>
      </trkpt>
      <trkpt lat="42.81408" lon="1.74292">
        <ele>1732.43</ele>
        <time>2021-08-22T08:36:13Z</time>
      </trkpt>
      <trkpt lat="42.81409" lon="1.7429">
        <ele>1733.88</ele>
        <time>2021-08-22T08:36:35Z</time>
      </trkpt>
      <trkpt lat="42.81413" lon="1.74292">
        <ele>1732.43</ele>
        <time>2021-08-22T08:36:41Z</time>
      </trkpt>
      <trkpt lat="42.81427" lon="1.74294">
        <ele>1731.47</ele>
        <time>2021-08-22T08:36:54Z</time>
      </trkpt>
      <trkpt lat="42.81439" lon="1.74298">
        <ele>1731.95</ele>
        <time>2021-08-22T08:37:05Z</time>
      </trkpt>
      <trkpt lat="42.81453" lon="1.74305">
        <ele>1731.95</ele>
        <time>2021-08-22T08:37:19Z</time>
      </trkpt>
      <trkpt lat="42.81462" lon="1.74311">
        <ele>1731.95</ele>
        <time>2021-08-22T08:37:28Z</time>
      </trkpt>
      <trkpt lat="42.81464" lon="1.74311">
        <ele>1731.95</ele>
        <time>2021-08-22T08:37:30Z</time>
      </trkpt>
      <trkpt lat="42.8147" lon="1.74312">
        <ele>1731.95</ele>
        <time>2021-08-22T08:37:35Z</time>
      </trkpt>
      <trkpt lat="42.81474" lon="1.74313">
        <ele>1731.95</ele>
        <time>2021-08-22T08:37:39Z</time>
      </trkpt>
      <trkpt lat="42.81489" lon="1.74321">
        <ele>1731.95</ele>
        <time>2021-08-22T08:37:53Z</time>
      </trkpt>
      <trkpt lat="42.81497" lon="1.74327">
        <ele>1733.88</ele>
        <time>2021-08-22T08:38:01Z</time>
      </trkpt>
      <trkpt lat="42.81502" lon="1.74328">
        <ele>1734.36</ele>
        <time>2021-08-22T08:38:06Z</time>
      </trkpt>
      <trkpt lat="42.8151" lon="1.74333">
        <ele>1735.32</ele>
        <time>2021-08-22T08:38:14Z</time>
      </trkpt>
      <trkpt lat="42.81523" lon="1.74339">
        <ele>1736.28</ele>
        <time>2021-08-22T08:38:27Z</time>
      </trkpt>
      <trkpt lat="42.81526" lon="1.7434">
        <ele>1736.76</ele>
        <time>2021-08-22T08:38:37Z</time>
      </trkpt>
      <trkpt lat="42.8153" lon="1.74336">
        <ele>1736.76</ele>
        <time>2021-08-22T08:38:48Z</time>
      </trkpt>
      <trkpt lat="42.81538" lon="1.74335">
        <ele>1737.72</ele>
        <time>2021-08-22T08:38:58Z</time>
      </trkpt>
      <trkpt lat="42.81539" lon="1.74334">
        <ele>1737.72</ele>
        <time>2021-08-22T08:38:59Z</time>
      </trkpt>
      <trkpt lat="42.81546" lon="1.74333">
        <ele>1736.28</ele>
        <time>2021-08-22T08:39:07Z</time>
      </trkpt>
      <trkpt lat="42.81547" lon="1.74331">
        <ele>1736.28</ele>
        <time>2021-08-22T08:39:18Z</time>
      </trkpt>
      <trkpt lat="42.81549" lon="1.74331">
        <ele>1736.28</ele>
        <time>2021-08-22T08:39:31Z</time>
      </trkpt>
      <trkpt lat="42.81549" lon="1.7433">
        <ele>1736.28</ele>
        <time>2021-08-22T08:39:49Z</time>
      </trkpt>
      <trkpt lat="42.8155" lon="1.74331">
        <ele>1736.28</ele>
        <time>2021-08-22T08:40:06Z</time>
      </trkpt>
      <trkpt lat="42.81549" lon="1.74331">
        <ele>1736.28</ele>
        <time>2021-08-22T08:40:29Z</time>
      </trkpt>
      <trkpt lat="42.81554" lon="1.74328">
        <ele>1735.8</ele>
        <time>2021-08-22T08:40:43Z</time>
      </trkpt>
      <trkpt lat="42.81561" lon="1.74329">
        <ele>1733.88</ele>
        <time>2021-08-22T08:40:56Z</time>
      </trkpt>
      <trkpt lat="42.81565" lon="1.7433">
        <ele>1732.43</ele>
        <time>2021-08-22T08:41:07Z</time>
      </trkpt>
      <trkpt lat="42.81569" lon="1.74331">
        <ele>1731.95</ele>
        <time>2021-08-22T08:41:22Z</time>
      </trkpt>
      <trkpt lat="42.81575" lon="1.74332">
        <ele>1730.03</ele>
        <time>2021-08-22T08:41:33Z</time>
      </trkpt>
      <trkpt lat="42.81578" lon="1.74333">
        <ele>1729.55</ele>
        <time>2021-08-22T08:41:43Z</time>
      </trkpt>
      <trkpt lat="42.81581" lon="1.74337">
        <ele>1728.59</ele>
        <time>2021-08-22T08:41:51Z</time>
      </trkpt>
      <trkpt lat="42.81584" lon="1.7434">
        <ele>1728.59</ele>
        <time>2021-08-22T08:42:03Z</time>
      </trkpt>
      <trkpt lat="42.81585" lon="1.74339">
        <ele>1728.11</ele>
        <time>2021-08-22T08:42:17Z</time>
      </trkpt>
      <trkpt lat="42.81587" lon="1.74337">
        <ele>1727.63</ele>
        <time>2021-08-22T08:42:28Z</time>
      </trkpt>
      <trkpt lat="42.81587" lon="1.74338">
        <ele>1727.63</ele>
        <time>2021-08-22T08:42:44Z</time>
      </trkpt>
      <trkpt lat="42.81588" lon="1.74339">
        <ele>1728.11</ele>
        <time>2021-08-22T08:42:59Z</time>
      </trkpt>
      <trkpt lat="42.81592" lon="1.74345">
        <ele>1727.63</ele>
        <time>2021-08-22T08:43:11Z</time>
      </trkpt>
      <trkpt lat="42.81598" lon="1.7435">
        <ele>1727.63</ele>
        <time>2021-08-22T08:43:23Z</time>
      </trkpt>
      <trkpt lat="42.81598" lon="1.74349">
        <ele>1727.63</ele>
        <time>2021-08-22T08:43:34Z</time>
      </trkpt>
      <trkpt lat="42.81605" lon="1.74357">
        <ele>1727.63</ele>
        <time>2021-08-22T08:43:44Z</time>
      </trkpt>
      <trkpt lat="42.81606" lon="1.74359">
        <ele>1727.63</ele>
        <time>2021-08-22T08:43:45Z</time>
      </trkpt>
      <trkpt lat="42.81609" lon="1.74364">
        <ele>1727.63</ele>
        <time>2021-08-22T08:43:54Z</time>
      </trkpt>
      <trkpt lat="42.81616" lon="1.74372">
        <ele>1727.63</ele>
        <time>2021-08-22T08:44:05Z</time>
      </trkpt>
      <trkpt lat="42.81621" lon="1.7437">
        <ele>1727.63</ele>
        <time>2021-08-22T08:44:14Z</time>
      </trkpt>
      <trkpt lat="42.81622" lon="1.74369">
        <ele>1727.63</ele>
        <time>2021-08-22T08:44:28Z</time>
      </trkpt>
      <trkpt lat="42.81623" lon="1.74368">
        <ele>1727.63</ele>
        <time>2021-08-22T08:44:44Z</time>
      </trkpt>
      <trkpt lat="42.81624" lon="1.74367">
        <ele>1728.11</ele>
        <time>2021-08-22T08:45:05Z</time>
      </trkpt>
      <trkpt lat="42.81624" lon="1.74368">
        <ele>1728.11</ele>
        <time>2021-08-22T08:45:26Z</time>
      </trkpt>
      <trkpt lat="42.81623" lon="1.74367">
        <ele>1728.11</ele>
        <time>2021-08-22T08:45:45Z</time>
      </trkpt>
      <trkpt lat="42.81623" lon="1.74367">
        <ele>1729.55</ele>
        <time>2021-08-22T08:46:03Z</time>
      </trkpt>
      <trkpt lat="42.8162" lon="1.74367">
        <ele>1729.55</ele>
        <time>2021-08-22T08:46:21Z</time>
      </trkpt>
      <trkpt lat="42.81612" lon="1.74363">
        <ele>1730.03</ele>
        <time>2021-08-22T08:46:28Z</time>
      </trkpt>
      <trkpt lat="42.81604" lon="1.74352">
        <ele>1730.03</ele>
        <time>2021-08-22T08:46:39Z</time>
      </trkpt>
      <trkpt lat="42.81592" lon="1.74343">
        <ele>1730.03</ele>
        <time>2021-08-22T08:46:52Z</time>
      </trkpt>
      <trkpt lat="42.81586" lon="1.74338">
        <ele>1730.03</ele>
        <time>2021-08-22T08:47:01Z</time>
      </trkpt>
      <trkpt lat="42.81583" lon="1.74338">
        <ele>1730.03</ele>
        <time>2021-08-22T08:47:03Z</time>
      </trkpt>
      <trkpt lat="42.81581" lon="1.74337">
        <ele>1730.03</ele>
        <time>2021-08-22T08:47:06Z</time>
      </trkpt>
      <trkpt lat="42.81573" lon="1.74333">
        <ele>1731.47</ele>
        <time>2021-08-22T08:47:16Z</time>
      </trkpt>
      <trkpt lat="42.81566" lon="1.74332">
        <ele>1733.88</ele>
        <time>2021-08-22T08:47:25Z</time>
      </trkpt>
      <trkpt lat="42.81558" lon="1.74331">
        <ele>1735.8</ele>
        <time>2021-08-22T08:47:35Z</time>
      </trkpt>
      <trkpt lat="42.8155" lon="1.74331">
        <ele>1736.76</ele>
        <time>2021-08-22T08:47:45Z</time>
      </trkpt>
      <trkpt lat="42.81548" lon="1.74332">
        <ele>1737.24</ele>
        <time>2021-08-22T08:47:48Z</time>
      </trkpt>
      <trkpt lat="42.81543" lon="1.74333">
        <ele>1738.2</ele>
        <time>2021-08-22T08:47:54Z</time>
      </trkpt>
      <trkpt lat="42.8154" lon="1.74332">
        <ele>1738.2</ele>
        <time>2021-08-22T08:48:03Z</time>
      </trkpt>
      <trkpt lat="42.81534" lon="1.74332">
        <ele>1738.68</ele>
        <time>2021-08-22T08:48:13Z</time>
      </trkpt>
      <trkpt lat="42.81523" lon="1.74334">
        <ele>1739.64</ele>
        <time>2021-08-22T08:48:25Z</time>
      </trkpt>
      <trkpt lat="42.81516" lon="1.7433">
        <ele>1738.2</ele>
        <time>2021-08-22T08:48:31Z</time>
      </trkpt>
      <trkpt lat="42.81511" lon="1.74328">
        <ele>1737.24</ele>
        <time>2021-08-22T08:48:43Z</time>
      </trkpt>
      <trkpt lat="42.8151" lon="1.74329">
        <ele>1737.24</ele>
        <time>2021-08-22T08:49:01Z</time>
      </trkpt>
      <trkpt lat="42.8151" lon="1.74332">
        <ele>1737.24</ele>
        <time>2021-08-22T08:49:08Z</time>
      </trkpt>
      <trkpt lat="42.81511" lon="1.74336">
        <ele>1737.24</ele>
        <time>2021-08-22T08:49:11Z</time>
      </trkpt>
      <trkpt lat="42.81513" lon="1.74354">
        <ele>1736.76</ele>
        <time>2021-08-22T08:49:24Z</time>
      </trkpt>
      <trkpt lat="42.81513" lon="1.74356">
        <ele>1736.76</ele>
        <time>2021-08-22T08:49:36Z</time>
      </trkpt>
      <trkpt lat="42.81513" lon="1.74365">
        <ele>1736.76</ele>
        <time>2021-08-22T08:49:52Z</time>
      </trkpt>
      <trkpt lat="42.81508" lon="1.74385">
        <ele>1736.76</ele>
        <time>2021-08-22T08:50:06Z</time>
      </trkpt>
      <trkpt lat="42.81505" lon="1.74383">
        <ele>1735.32</ele>
        <time>2021-08-22T08:50:15Z</time>
      </trkpt>
      <trkpt lat="42.81507" lon="1.7438">
        <ele>1735.8</ele>
        <time>2021-08-22T08:50:22Z</time>
      </trkpt>
      <trkpt lat="42.81515" lon="1.74369">
        <ele>1736.76</ele>
        <time>2021-08-22T08:50:33Z</time>
      </trkpt>
      <trkpt lat="42.81521" lon="1.74352">
        <ele>1736.76</ele>
        <time>2021-08-22T08:50:46Z</time>
      </trkpt>
      <trkpt lat="42.81527" lon="1.74339">
        <ele>1738.68</ele>
        <time>2021-08-22T08:50:58Z</time>
      </trkpt>
      <trkpt lat="42.81524" lon="1.74332">
        <ele>1738.68</ele>
        <time>2021-08-22T08:51:04Z</time>
      </trkpt>
      <trkpt lat="42.81507" lon="1.74324">
        <ele>1738.68</ele>
        <time>2021-08-22T08:51:17Z</time>
      </trkpt>
      <trkpt lat="42.81504" lon="1.74323">
        <ele>1737.24</ele>
        <time>2021-08-22T08:51:19Z</time>
      </trkpt>
      <trkpt lat="42.81482" lon="1.74313">
        <ele>1735.8</ele>
        <time>2021-08-22T08:51:37Z</time>
      </trkpt>
      <trkpt lat="42.8146" lon="1.74307">
        <ele>1735.32</ele>
        <time>2021-08-22T08:51:53Z</time>
      </trkpt>
      <trkpt lat="42.8144" lon="1.74296">
        <ele>1735.32</ele>
        <time>2021-08-22T08:52:09Z</time>
      </trkpt>
      <trkpt lat="42.81418" lon="1.74295">
        <ele>1734.84</ele>
        <time>2021-08-22T08:52:25Z</time>
      </trkpt>
      <trkpt lat="42.81407" lon="1.74293">
        <ele>1736.28</ele>
        <time>2021-08-22T08:52:33Z</time>
      </trkpt>
      <trkpt lat="42.81394" lon="1.74282">
        <ele>1734.84</ele>
        <time>2021-08-22T08:52:47Z</time>
      </trkpt>
      <trkpt lat="42.81394" lon="1.74281">
        <ele>1734.36</ele>
        <time>2021-08-22T08:52:48Z</time>
      </trkpt>
      <trkpt lat="42.81386" lon="1.74274">
        <ele>1732.43</ele>
        <time>2021-08-22T08:52:59Z</time>
      </trkpt>
      <trkpt lat="42.81376" lon="1.74269">
        <ele>1730.51</ele>
        <time>2021-08-22T08:53:10Z</time>
      </trkpt>
      <trkpt lat="42.81374" lon="1.7427">
        <ele>1730.51</ele>
        <time>2021-08-22T08:53:12Z</time>
      </trkpt>
      <trkpt lat="42.81373" lon="1.7427">
        <ele>1730.51</ele>
        <time>2021-08-22T08:53:13Z</time>
      </trkpt>
      <trkpt lat="42.81372" lon="1.7427">
        <ele>1730.51</ele>
        <time>2021-08-22T08:53:14Z</time>
      </trkpt>
      <trkpt lat="42.81362" lon="1.74264">
        <ele>1728.59</ele>
        <time>2021-08-22T08:53:25Z</time>
      </trkpt>
      <trkpt lat="42.81359" lon="1.74262">
        <ele>1728.11</ele>
        <time>2021-08-22T08:53:28Z</time>
      </trkpt>
      <trkpt lat="42.81357" lon="1.7426">
        <ele>1728.11</ele>
        <time>2021-08-22T08:53:30Z</time>
      </trkpt>
      <trkpt lat="42.81356" lon="1.74259">
        <ele>1728.11</ele>
        <time>2021-08-22T08:53:31Z</time>
      </trkpt>
      <trkpt lat="42.81355" lon="1.74259">
        <ele>1728.11</ele>
        <time>2021-08-22T08:53:32Z</time>
      </trkpt>
      <trkpt lat="42.81348" lon="1.74256">
        <ele>1726.67</ele>
        <time>2021-08-22T08:53:40Z</time>
      </trkpt>
      <trkpt lat="42.81342" lon="1.74253">
        <ele>1725.7</ele>
        <time>2021-08-22T08:53:47Z</time>
      </trkpt>
      <trkpt lat="42.81331" lon="1.7424">
        <ele>1726.18</ele>
        <time>2021-08-22T08:53:59Z</time>
      </trkpt>
      <trkpt lat="42.81321" lon="1.74231">
        <ele>1724.26</ele>
        <time>2021-08-22T08:54:11Z</time>
      </trkpt>
      <trkpt lat="42.81319" lon="1.74231">
        <ele>1723.3</ele>
        <time>2021-08-22T08:54:23Z</time>
      </trkpt>
      <trkpt lat="42.81318" lon="1.74227">
        <ele>1722.34</ele>
        <time>2021-08-22T08:54:33Z</time>
      </trkpt>
      <trkpt lat="42.81315" lon="1.74227">
        <ele>1721.38</ele>
        <time>2021-08-22T08:54:44Z</time>
      </trkpt>
      <trkpt lat="42.8131" lon="1.74226">
        <ele>1719.94</ele>
        <time>2021-08-22T08:54:54Z</time>
      </trkpt>
      <trkpt lat="42.81306" lon="1.74226">
        <ele>1717.53</ele>
        <time>2021-08-22T08:55:03Z</time>
      </trkpt>
      <trkpt lat="42.81302" lon="1.74225">
        <ele>1715.61</ele>
        <time>2021-08-22T08:55:12Z</time>
      </trkpt>
      <trkpt lat="42.81299" lon="1.74222">
        <ele>1715.13</ele>
        <time>2021-08-22T08:55:17Z</time>
      </trkpt>
      <trkpt lat="42.81293" lon="1.74215">
        <ele>1714.17</ele>
        <time>2021-08-22T08:55:26Z</time>
      </trkpt>
      <trkpt lat="42.81292" lon="1.74215">
        <ele>1713.69</ele>
        <time>2021-08-22T08:55:27Z</time>
      </trkpt>
      <trkpt lat="42.81284" lon="1.7421">
        <ele>1713.21</ele>
        <time>2021-08-22T08:55:36Z</time>
      </trkpt>
      <trkpt lat="42.81277" lon="1.74209">
        <ele>1713.21</ele>
        <time>2021-08-22T08:55:44Z</time>
      </trkpt>
      <trkpt lat="42.81265" lon="1.74208">
        <ele>1714.65</ele>
        <time>2021-08-22T08:55:56Z</time>
      </trkpt>
      <trkpt lat="42.81257" lon="1.74207">
        <ele>1717.05</ele>
        <time>2021-08-22T08:56:07Z</time>
      </trkpt>
      <trkpt lat="42.81248" lon="1.7421">
        <ele>1718.97</ele>
        <time>2021-08-22T08:56:18Z</time>
      </trkpt>
      <trkpt lat="42.81244" lon="1.74207">
        <ele>1719.94</ele>
        <time>2021-08-22T08:56:24Z</time>
      </trkpt>
      <trkpt lat="42.8124" lon="1.74203">
        <ele>1720.9</ele>
        <time>2021-08-22T08:56:32Z</time>
      </trkpt>
      <trkpt lat="42.81239" lon="1.74202">
        <ele>1721.38</ele>
        <time>2021-08-22T08:56:33Z</time>
      </trkpt>
      <trkpt lat="42.81237" lon="1.74201">
        <ele>1721.38</ele>
        <time>2021-08-22T08:56:35Z</time>
      </trkpt>
      <trkpt lat="42.81235" lon="1.742">
        <ele>1721.38</ele>
        <time>2021-08-22T08:56:37Z</time>
      </trkpt>
      <trkpt lat="42.81233" lon="1.74199">
        <ele>1721.38</ele>
        <time>2021-08-22T08:56:39Z</time>
      </trkpt>
      <trkpt lat="42.81233" lon="1.74197">
        <ele>1721.38</ele>
        <time>2021-08-22T08:56:40Z</time>
      </trkpt>
      <trkpt lat="42.81226" lon="1.74189">
        <ele>1722.34</ele>
        <time>2021-08-22T08:56:50Z</time>
      </trkpt>
      <trkpt lat="42.81224" lon="1.74187">
        <ele>1722.82</ele>
        <time>2021-08-22T08:56:53Z</time>
      </trkpt>
      <trkpt lat="42.8122" lon="1.74182">
        <ele>1721.38</ele>
        <time>2021-08-22T08:57:01Z</time>
      </trkpt>
      <trkpt lat="42.81213" lon="1.7418">
        <ele>1719.94</ele>
        <time>2021-08-22T08:57:13Z</time>
      </trkpt>
      <trkpt lat="42.81211" lon="1.74179">
        <ele>1719.94</ele>
        <time>2021-08-22T08:57:16Z</time>
      </trkpt>
      <trkpt lat="42.812" lon="1.74176">
        <ele>1718.97</ele>
        <time>2021-08-22T08:57:27Z</time>
      </trkpt>
      <trkpt lat="42.81195" lon="1.74171">
        <ele>1718.97</ele>
        <time>2021-08-22T08:57:37Z</time>
      </trkpt>
      <trkpt lat="42.81189" lon="1.74167">
        <ele>1718.01</ele>
        <time>2021-08-22T08:57:48Z</time>
      </trkpt>
      <trkpt lat="42.81185" lon="1.74162">
        <ele>1716.57</ele>
        <time>2021-08-22T08:57:58Z</time>
      </trkpt>
      <trkpt lat="42.8118" lon="1.7416">
        <ele>1715.13</ele>
        <time>2021-08-22T08:58:09Z</time>
      </trkpt>
      <trkpt lat="42.81176" lon="1.74154">
        <ele>1713.69</ele>
        <time>2021-08-22T08:58:19Z</time>
      </trkpt>
      <trkpt lat="42.81175" lon="1.74154">
        <ele>1713.69</ele>
        <time>2021-08-22T08:58:20Z</time>
      </trkpt>
      <trkpt lat="42.81174" lon="1.74153">
        <ele>1713.69</ele>
        <time>2021-08-22T08:58:21Z</time>
      </trkpt>
      <trkpt lat="42.81163" lon="1.7415">
        <ele>1712.73</ele>
        <time>2021-08-22T08:58:31Z</time>
      </trkpt>
      <trkpt lat="42.81152" lon="1.74144">
        <ele>1714.17</ele>
        <time>2021-08-22T08:58:44Z</time>
      </trkpt>
      <trkpt lat="42.81147" lon="1.74136">
        <ele>1715.13</ele>
        <time>2021-08-22T08:58:53Z</time>
      </trkpt>
      <trkpt lat="42.81147" lon="1.74135">
        <ele>1715.13</ele>
        <time>2021-08-22T08:58:54Z</time>
      </trkpt>
      <trkpt lat="42.81134" lon="1.74128">
        <ele>1714.17</ele>
        <time>2021-08-22T08:59:06Z</time>
      </trkpt>
      <trkpt lat="42.81131" lon="1.74126">
        <ele>1714.17</ele>
        <time>2021-08-22T08:59:08Z</time>
      </trkpt>
      <trkpt lat="42.81129" lon="1.74126">
        <ele>1714.17</ele>
        <time>2021-08-22T08:59:09Z</time>
      </trkpt>
      <trkpt lat="42.81121" lon="1.74122">
        <ele>1715.13</ele>
        <time>2021-08-22T08:59:16Z</time>
      </trkpt>
      <trkpt lat="42.8112" lon="1.74123">
        <ele>1715.13</ele>
        <time>2021-08-22T08:59:17Z</time>
      </trkpt>
      <trkpt lat="42.81108" lon="1.74127">
        <ele>1715.61</ele>
        <time>2021-08-22T08:59:28Z</time>
      </trkpt>
      <trkpt lat="42.81105" lon="1.74123">
        <ele>1715.61</ele>
        <time>2021-08-22T08:59:35Z</time>
      </trkpt>
      <trkpt lat="42.81101" lon="1.74121">
        <ele>1713.69</ele>
        <time>2021-08-22T08:59:38Z</time>
      </trkpt>
      <trkpt lat="42.81101" lon="1.7412">
        <ele>1713.21</ele>
        <time>2021-08-22T08:59:39Z</time>
      </trkpt>
      <trkpt lat="42.811" lon="1.74119">
        <ele>1713.21</ele>
        <time>2021-08-22T08:59:40Z</time>
      </trkpt>
      <trkpt lat="42.81099" lon="1.74118">
        <ele>1712.73</ele>
        <time>2021-08-22T08:59:41Z</time>
      </trkpt>
      <trkpt lat="42.81097" lon="1.74117">
        <ele>1712.73</ele>
        <time>2021-08-22T08:59:42Z</time>
      </trkpt>
      <trkpt lat="42.81096" lon="1.74117">
        <ele>1712.25</ele>
        <time>2021-08-22T08:59:43Z</time>
      </trkpt>
      <trkpt lat="42.81095" lon="1.74117">
        <ele>1712.25</ele>
        <time>2021-08-22T08:59:44Z</time>
      </trkpt>
      <trkpt lat="42.81094" lon="1.74116">
        <ele>1712.25</ele>
        <time>2021-08-22T08:59:45Z</time>
      </trkpt>
      <trkpt lat="42.81093" lon="1.74115">
        <ele>1712.25</ele>
        <time>2021-08-22T08:59:46Z</time>
      </trkpt>
      <trkpt lat="42.81092" lon="1.74115">
        <ele>1711.28</ele>
        <time>2021-08-22T08:59:47Z</time>
      </trkpt>
      <trkpt lat="42.81081" lon="1.74109">
        <ele>1709.36</ele>
        <time>2021-08-22T08:59:58Z</time>
      </trkpt>
      <trkpt lat="42.81076" lon="1.74108">
        <ele>1709.36</ele>
        <time>2021-08-22T09:00:02Z</time>
      </trkpt>
      <trkpt lat="42.81075" lon="1.74107">
        <ele>1708.88</ele>
        <time>2021-08-22T09:00:03Z</time>
      </trkpt>
      <trkpt lat="42.81074" lon="1.74107">
        <ele>1708.88</ele>
        <time>2021-08-22T09:00:04Z</time>
      </trkpt>
      <trkpt lat="42.81061" lon="1.74106">
        <ele>1708.88</ele>
        <time>2021-08-22T09:00:17Z</time>
      </trkpt>
      <trkpt lat="42.81048" lon="1.74103">
        <ele>1706.96</ele>
        <time>2021-08-22T09:00:28Z</time>
      </trkpt>
      <trkpt lat="42.81034" lon="1.741">
        <ele>1706</ele>
        <time>2021-08-22T09:00:39Z</time>
      </trkpt>
      <trkpt lat="42.81016" lon="1.74098">
        <ele>1704.55</ele>
        <time>2021-08-22T09:00:52Z</time>
      </trkpt>
      <trkpt lat="42.81005" lon="1.74092">
        <ele>1703.59</ele>
        <time>2021-08-22T09:01:04Z</time>
      </trkpt>
      <trkpt lat="42.80992" lon="1.74086">
        <ele>1702.15</ele>
        <time>2021-08-22T09:01:15Z</time>
      </trkpt>
      <trkpt lat="42.80987" lon="1.74086">
        <ele>1701.67</ele>
        <time>2021-08-22T09:01:20Z</time>
      </trkpt>
      <trkpt lat="42.80972" lon="1.74077">
        <ele>1699.75</ele>
        <time>2021-08-22T09:01:33Z</time>
      </trkpt>
      <trkpt lat="42.80955" lon="1.74069">
        <ele>1698.31</ele>
        <time>2021-08-22T09:01:47Z</time>
      </trkpt>
      <trkpt lat="42.80952" lon="1.74068">
        <ele>1698.31</ele>
        <time>2021-08-22T09:01:50Z</time>
      </trkpt>
      <trkpt lat="42.80951" lon="1.74068">
        <ele>1698.31</ele>
        <time>2021-08-22T09:01:51Z</time>
      </trkpt>
      <trkpt lat="42.8095" lon="1.74067">
        <ele>1697.83</ele>
        <time>2021-08-22T09:01:52Z</time>
      </trkpt>
      <trkpt lat="42.80949" lon="1.74067">
        <ele>1697.83</ele>
        <time>2021-08-22T09:01:53Z</time>
      </trkpt>
      <trkpt lat="42.80936" lon="1.7406">
        <ele>1696.38</ele>
        <time>2021-08-22T09:02:05Z</time>
      </trkpt>
      <trkpt lat="42.8092" lon="1.74055">
        <ele>1694.46</ele>
        <time>2021-08-22T09:02:18Z</time>
      </trkpt>
      <trkpt lat="42.80909" lon="1.74049">
        <ele>1693.5</ele>
        <time>2021-08-22T09:02:28Z</time>
      </trkpt>
      <trkpt lat="42.80894" lon="1.74041">
        <ele>1691.1</ele>
        <time>2021-08-22T09:02:41Z</time>
      </trkpt>
      <trkpt lat="42.80872" lon="1.74035">
        <ele>1689.17</ele>
        <time>2021-08-22T09:02:57Z</time>
      </trkpt>
      <trkpt lat="42.80855" lon="1.74024">
        <ele>1687.73</ele>
        <time>2021-08-22T09:03:13Z</time>
      </trkpt>
      <trkpt lat="42.80847" lon="1.7402">
        <ele>1686.29</ele>
        <time>2021-08-22T09:03:24Z</time>
      </trkpt>
      <trkpt lat="42.80845" lon="1.7402">
        <ele>1686.29</ele>
        <time>2021-08-22T09:03:26Z</time>
      </trkpt>
      <trkpt lat="42.80844" lon="1.74021">
        <ele>1685.81</ele>
        <time>2021-08-22T09:03:27Z</time>
      </trkpt>
      <trkpt lat="42.80843" lon="1.74021">
        <ele>1685.81</ele>
        <time>2021-08-22T09:03:28Z</time>
      </trkpt>
      <trkpt lat="42.80831" lon="1.74022">
        <ele>1683.89</ele>
        <time>2021-08-22T09:03:41Z</time>
      </trkpt>
      <trkpt lat="42.80818" lon="1.74025">
        <ele>1680.04</ele>
        <time>2021-08-22T09:03:54Z</time>
      </trkpt>
      <trkpt lat="42.80813" lon="1.74023">
        <ele>1678.6</ele>
        <time>2021-08-22T09:04:03Z</time>
      </trkpt>
      <trkpt lat="42.80809" lon="1.74029">
        <ele>1676.68</ele>
        <time>2021-08-22T09:04:13Z</time>
      </trkpt>
      <trkpt lat="42.80809" lon="1.74032">
        <ele>1676.2</ele>
        <time>2021-08-22T09:04:15Z</time>
      </trkpt>
      <trkpt lat="42.80807" lon="1.74046">
        <ele>1674.27</ele>
        <time>2021-08-22T09:04:26Z</time>
      </trkpt>
      <trkpt lat="42.80805" lon="1.7406">
        <ele>1670.91</ele>
        <time>2021-08-22T09:04:38Z</time>
      </trkpt>
      <trkpt lat="42.80804" lon="1.74072">
        <ele>1668.51</ele>
        <time>2021-08-22T09:04:50Z</time>
      </trkpt>
      <trkpt lat="42.80804" lon="1.74074">
        <ele>1668.02</ele>
        <time>2021-08-22T09:04:52Z</time>
      </trkpt>
      <trkpt lat="42.80804" lon="1.74077">
        <ele>1667.54</ele>
        <time>2021-08-22T09:04:54Z</time>
      </trkpt>
      <trkpt lat="42.80804" lon="1.74078">
        <ele>1667.54</ele>
        <time>2021-08-22T09:04:55Z</time>
      </trkpt>
      <trkpt lat="42.80804" lon="1.7408">
        <ele>1666.58</ele>
        <time>2021-08-22T09:04:56Z</time>
      </trkpt>
      <trkpt lat="42.80804" lon="1.74082">
        <ele>1666.58</ele>
        <time>2021-08-22T09:04:57Z</time>
      </trkpt>
      <trkpt lat="42.80804" lon="1.74084">
        <ele>1666.1</ele>
        <time>2021-08-22T09:04:59Z</time>
      </trkpt>
      <trkpt lat="42.80804" lon="1.74086">
        <ele>1665.62</ele>
        <time>2021-08-22T09:05:00Z</time>
      </trkpt>
      <trkpt lat="42.80804" lon="1.74087">
        <ele>1665.14</ele>
        <time>2021-08-22T09:05:01Z</time>
      </trkpt>
      <trkpt lat="42.80804" lon="1.74097">
        <ele>1664.18</ele>
        <time>2021-08-22T09:05:07Z</time>
      </trkpt>
      <trkpt lat="42.80804" lon="1.74099">
        <ele>1664.18</ele>
        <time>2021-08-22T09:05:08Z</time>
      </trkpt>
      <trkpt lat="42.80804" lon="1.74101">
        <ele>1663.22</ele>
        <time>2021-08-22T09:05:09Z</time>
      </trkpt>
      <trkpt lat="42.80802" lon="1.74112">
        <ele>1661.3</ele>
        <time>2021-08-22T09:05:19Z</time>
      </trkpt>
      <trkpt lat="42.80797" lon="1.74121">
        <ele>1657.45</ele>
        <time>2021-08-22T09:05:30Z</time>
      </trkpt>
      <trkpt lat="42.80795" lon="1.74124">
        <ele>1656.97</ele>
        <time>2021-08-22T09:05:33Z</time>
      </trkpt>
      <trkpt lat="42.80795" lon="1.74126">
        <ele>1656.49</ele>
        <time>2021-08-22T09:05:34Z</time>
      </trkpt>
      <trkpt lat="42.80795" lon="1.74128">
        <ele>1656.01</ele>
        <time>2021-08-22T09:05:36Z</time>
      </trkpt>
      <trkpt lat="42.8079" lon="1.74138">
        <ele>1653.12</ele>
        <time>2021-08-22T09:05:44Z</time>
      </trkpt>
      <trkpt lat="42.80789" lon="1.74139">
        <ele>1652.64</ele>
        <time>2021-08-22T09:05:45Z</time>
      </trkpt>
      <trkpt lat="42.80787" lon="1.74142">
        <ele>1651.68</ele>
        <time>2021-08-22T09:05:48Z</time>
      </trkpt>
      <trkpt lat="42.80786" lon="1.74143">
        <ele>1651.2</ele>
        <time>2021-08-22T09:05:50Z</time>
      </trkpt>
      <trkpt lat="42.80785" lon="1.74145">
        <ele>1650.24</ele>
        <time>2021-08-22T09:05:51Z</time>
      </trkpt>
      <trkpt lat="42.80784" lon="1.74148">
        <ele>1649.76</ele>
        <time>2021-08-22T09:05:54Z</time>
      </trkpt>
      <trkpt lat="42.80783" lon="1.7415">
        <ele>1649.28</ele>
        <time>2021-08-22T09:05:55Z</time>
      </trkpt>
      <trkpt lat="42.80783" lon="1.74151">
        <ele>1648.8</ele>
        <time>2021-08-22T09:05:56Z</time>
      </trkpt>
      <trkpt lat="42.80782" lon="1.74152">
        <ele>1648.32</ele>
        <time>2021-08-22T09:05:57Z</time>
      </trkpt>
      <trkpt lat="42.80781" lon="1.74153">
        <ele>1648.32</ele>
        <time>2021-08-22T09:05:58Z</time>
      </trkpt>
      <trkpt lat="42.80781" lon="1.74154">
        <ele>1647.36</ele>
        <time>2021-08-22T09:05:59Z</time>
      </trkpt>
      <trkpt lat="42.8078" lon="1.74155">
        <ele>1647.36</ele>
        <time>2021-08-22T09:06:00Z</time>
      </trkpt>
      <trkpt lat="42.80779" lon="1.74158">
        <ele>1646.88</ele>
        <time>2021-08-22T09:06:02Z</time>
      </trkpt>
      <trkpt lat="42.80778" lon="1.74159">
        <ele>1646.4</ele>
        <time>2021-08-22T09:06:03Z</time>
      </trkpt>
      <trkpt lat="42.80778" lon="1.74161">
        <ele>1645.91</ele>
        <time>2021-08-22T09:06:04Z</time>
      </trkpt>
      <trkpt lat="42.80777" lon="1.74162">
        <ele>1645.91</ele>
        <time>2021-08-22T09:06:05Z</time>
      </trkpt>
      <trkpt lat="42.80776" lon="1.74163">
        <ele>1644.95</ele>
        <time>2021-08-22T09:06:06Z</time>
      </trkpt>
      <trkpt lat="42.80776" lon="1.74164">
        <ele>1644.95</ele>
        <time>2021-08-22T09:06:07Z</time>
      </trkpt>
      <trkpt lat="42.80775" lon="1.74166">
        <ele>1644.47</ele>
        <time>2021-08-22T09:06:08Z</time>
      </trkpt>
      <trkpt lat="42.80774" lon="1.74167">
        <ele>1644.47</ele>
        <time>2021-08-22T09:06:09Z</time>
      </trkpt>
      <trkpt lat="42.80774" lon="1.74168">
        <ele>1643.99</ele>
        <time>2021-08-22T09:06:10Z</time>
      </trkpt>
      <trkpt lat="42.80772" lon="1.74172">
        <ele>1642.55</ele>
        <time>2021-08-22T09:06:13Z</time>
      </trkpt>
      <trkpt lat="42.8077" lon="1.74173">
        <ele>1642.07</ele>
        <time>2021-08-22T09:06:15Z</time>
      </trkpt>
      <trkpt lat="42.80769" lon="1.74174">
        <ele>1641.59</ele>
        <time>2021-08-22T09:06:16Z</time>
      </trkpt>
      <trkpt lat="42.80765" lon="1.74181">
        <ele>1639.67</ele>
        <time>2021-08-22T09:06:26Z</time>
      </trkpt>
      <trkpt lat="42.8076" lon="1.74193">
        <ele>1637.74</ele>
        <time>2021-08-22T09:06:36Z</time>
      </trkpt>
      <trkpt lat="42.80754" lon="1.74204">
        <ele>1634.38</ele>
        <time>2021-08-22T09:06:46Z</time>
      </trkpt>
      <trkpt lat="42.80748" lon="1.74217">
        <ele>1631.01</ele>
        <time>2021-08-22T09:06:55Z</time>
      </trkpt>
      <trkpt lat="42.8074" lon="1.74229">
        <ele>1628.13</ele>
        <time>2021-08-22T09:07:05Z</time>
      </trkpt>
      <trkpt lat="42.80739" lon="1.7423">
        <ele>1628.13</ele>
        <time>2021-08-22T09:07:06Z</time>
      </trkpt>
      <trkpt lat="42.80733" lon="1.74241">
        <ele>1624.77</ele>
        <time>2021-08-22T09:07:16Z</time>
      </trkpt>
      <trkpt lat="42.80725" lon="1.74245">
        <ele>1622.36</ele>
        <time>2021-08-22T09:07:27Z</time>
      </trkpt>
      <trkpt lat="42.80722" lon="1.7425">
        <ele>1620.92</ele>
        <time>2021-08-22T09:07:35Z</time>
      </trkpt>
      <trkpt lat="42.80713" lon="1.74257">
        <ele>1618.04</ele>
        <time>2021-08-22T09:07:48Z</time>
      </trkpt>
      <trkpt lat="42.80705" lon="1.74254">
        <ele>1616.11</ele>
        <time>2021-08-22T09:07:59Z</time>
      </trkpt>
      <trkpt lat="42.80697" lon="1.74262">
        <ele>1613.23</ele>
        <time>2021-08-22T09:08:11Z</time>
      </trkpt>
      <trkpt lat="42.80691" lon="1.74267">
        <ele>1611.31</ele>
        <time>2021-08-22T09:08:18Z</time>
      </trkpt>
      <trkpt lat="42.80691" lon="1.74268">
        <ele>1610.83</ele>
        <time>2021-08-22T09:08:19Z</time>
      </trkpt>
      <trkpt lat="42.80684" lon="1.74276">
        <ele>1607.94</ele>
        <time>2021-08-22T09:08:31Z</time>
      </trkpt>
      <trkpt lat="42.80683" lon="1.74277">
        <ele>1607.94</ele>
        <time>2021-08-22T09:08:32Z</time>
      </trkpt>
      <trkpt lat="42.80674" lon="1.74281">
        <ele>1605.06</ele>
        <time>2021-08-22T09:08:43Z</time>
      </trkpt>
      <trkpt lat="42.80669" lon="1.74285">
        <ele>1603.14</ele>
        <time>2021-08-22T09:08:50Z</time>
      </trkpt>
      <trkpt lat="42.80668" lon="1.74286">
        <ele>1602.66</ele>
        <time>2021-08-22T09:08:51Z</time>
      </trkpt>
      <trkpt lat="42.80667" lon="1.74287">
        <ele>1602.66</ele>
        <time>2021-08-22T09:08:52Z</time>
      </trkpt>
      <trkpt lat="42.80661" lon="1.74297">
        <ele>1600.25</ele>
        <time>2021-08-22T09:09:01Z</time>
      </trkpt>
      <trkpt lat="42.8066" lon="1.74297">
        <ele>1600.25</ele>
        <time>2021-08-22T09:09:02Z</time>
      </trkpt>
      <trkpt lat="42.80659" lon="1.74298">
        <ele>1599.77</ele>
        <time>2021-08-22T09:09:03Z</time>
      </trkpt>
      <trkpt lat="42.80654" lon="1.74304">
        <ele>1597.85</ele>
        <time>2021-08-22T09:09:10Z</time>
      </trkpt>
      <trkpt lat="42.80649" lon="1.7431">
        <ele>1595.93</ele>
        <time>2021-08-22T09:09:19Z</time>
      </trkpt>
      <trkpt lat="42.80644" lon="1.7431">
        <ele>1594.48</ele>
        <time>2021-08-22T09:09:24Z</time>
      </trkpt>
      <trkpt lat="42.80644" lon="1.74311">
        <ele>1594.48</ele>
        <time>2021-08-22T09:09:25Z</time>
      </trkpt>
      <trkpt lat="42.80643" lon="1.74312">
        <ele>1594.48</ele>
        <time>2021-08-22T09:09:26Z</time>
      </trkpt>
      <trkpt lat="42.80642" lon="1.74313">
        <ele>1594</ele>
        <time>2021-08-22T09:09:27Z</time>
      </trkpt>
      <trkpt lat="42.80642" lon="1.74315">
        <ele>1594</ele>
        <time>2021-08-22T09:09:28Z</time>
      </trkpt>
      <trkpt lat="42.8064" lon="1.74317">
        <ele>1593.52</ele>
        <time>2021-08-22T09:09:30Z</time>
      </trkpt>
      <trkpt lat="42.80639" lon="1.74318">
        <ele>1593.52</ele>
        <time>2021-08-22T09:09:31Z</time>
      </trkpt>
      <trkpt lat="42.80631" lon="1.74331">
        <ele>1590.64</ele>
        <time>2021-08-22T09:09:43Z</time>
      </trkpt>
      <trkpt lat="42.80631" lon="1.74333">
        <ele>1590.16</ele>
        <time>2021-08-22T09:09:44Z</time>
      </trkpt>
      <trkpt lat="42.80628" lon="1.74338">
        <ele>1588.24</ele>
        <time>2021-08-22T09:09:54Z</time>
      </trkpt>
      <trkpt lat="42.80623" lon="1.74343">
        <ele>1585.83</ele>
        <time>2021-08-22T09:10:05Z</time>
      </trkpt>
      <trkpt lat="42.8062" lon="1.74351">
        <ele>1583.91</ele>
        <time>2021-08-22T09:10:15Z</time>
      </trkpt>
      <trkpt lat="42.80622" lon="1.74356">
        <ele>1581.99</ele>
        <time>2021-08-22T09:10:24Z</time>
      </trkpt>
      <trkpt lat="42.80621" lon="1.74365">
        <ele>1580.06</ele>
        <time>2021-08-22T09:10:36Z</time>
      </trkpt>
      <trkpt lat="42.80622" lon="1.74372">
        <ele>1578.14</ele>
        <time>2021-08-22T09:10:47Z</time>
      </trkpt>
      <trkpt lat="42.80623" lon="1.74381">
        <ele>1575.26</ele>
        <time>2021-08-22T09:10:58Z</time>
      </trkpt>
      <trkpt lat="42.80625" lon="1.7439">
        <ele>1572.85</ele>
        <time>2021-08-22T09:11:08Z</time>
      </trkpt>
      <trkpt lat="42.80626" lon="1.74398">
        <ele>1570.45</ele>
        <time>2021-08-22T09:11:19Z</time>
      </trkpt>
      <trkpt lat="42.80625" lon="1.74406">
        <ele>1567.57</ele>
        <time>2021-08-22T09:11:30Z</time>
      </trkpt>
      <trkpt lat="42.80626" lon="1.74418">
        <ele>1564.68</ele>
        <time>2021-08-22T09:11:43Z</time>
      </trkpt>
      <trkpt lat="42.80629" lon="1.74432">
        <ele>1561.32</ele>
        <time>2021-08-22T09:11:57Z</time>
      </trkpt>
      <trkpt lat="42.80629" lon="1.74442">
        <ele>1559.4</ele>
        <time>2021-08-22T09:12:08Z</time>
      </trkpt>
      <trkpt lat="42.80633" lon="1.74447">
        <ele>1558.43</ele>
        <time>2021-08-22T09:12:14Z</time>
      </trkpt>
      <trkpt lat="42.80636" lon="1.74449">
        <ele>1557.95</ele>
        <time>2021-08-22T09:12:18Z</time>
      </trkpt>
      <trkpt lat="42.80637" lon="1.7445">
        <ele>1557.47</ele>
        <time>2021-08-22T09:12:19Z</time>
      </trkpt>
      <trkpt lat="42.80638" lon="1.74451">
        <ele>1557.47</ele>
        <time>2021-08-22T09:12:20Z</time>
      </trkpt>
      <trkpt lat="42.80639" lon="1.74459">
        <ele>1555.55</ele>
        <time>2021-08-22T09:12:30Z</time>
      </trkpt>
      <trkpt lat="42.80635" lon="1.74467">
        <ele>1552.19</ele>
        <time>2021-08-22T09:12:43Z</time>
      </trkpt>
      <trkpt lat="42.80634" lon="1.74473">
        <ele>1550.74</ele>
        <time>2021-08-22T09:12:49Z</time>
      </trkpt>
      <trkpt lat="42.80631" lon="1.7448">
        <ele>1548.34</ele>
        <time>2021-08-22T09:13:00Z</time>
      </trkpt>
      <trkpt lat="42.80628" lon="1.74483">
        <ele>1547.38</ele>
        <time>2021-08-22T09:13:05Z</time>
      </trkpt>
      <trkpt lat="42.80618" lon="1.74479">
        <ele>1544.5</ele>
        <time>2021-08-22T09:13:17Z</time>
      </trkpt>
      <trkpt lat="42.80609" lon="1.74479">
        <ele>1542.57</ele>
        <time>2021-08-22T09:13:27Z</time>
      </trkpt>
      <trkpt lat="42.80598" lon="1.74472">
        <ele>1540.65</ele>
        <time>2021-08-22T09:13:39Z</time>
      </trkpt>
      <trkpt lat="42.8059" lon="1.74468">
        <ele>1538.25</ele>
        <time>2021-08-22T09:13:49Z</time>
      </trkpt>
      <trkpt lat="42.80583" lon="1.74465">
        <ele>1535.84</ele>
        <time>2021-08-22T09:14:00Z</time>
      </trkpt>
      <trkpt lat="42.80577" lon="1.74463">
        <ele>1532.96</ele>
        <time>2021-08-22T09:14:13Z</time>
      </trkpt>
      <trkpt lat="42.8057" lon="1.74462">
        <ele>1531.04</ele>
        <time>2021-08-22T09:14:25Z</time>
      </trkpt>
      <trkpt lat="42.80569" lon="1.74464">
        <ele>1530.56</ele>
        <time>2021-08-22T09:14:41Z</time>
      </trkpt>
      <trkpt lat="42.80569" lon="1.74465">
        <ele>1530.08</ele>
        <time>2021-08-22T09:15:03Z</time>
      </trkpt>
      <trkpt lat="42.8057" lon="1.74465">
        <ele>1531.04</ele>
        <time>2021-08-22T09:15:11Z</time>
      </trkpt>
      <trkpt lat="42.80568" lon="1.74465">
        <ele>1531.04</ele>
        <time>2021-08-22T09:15:30Z</time>
      </trkpt>
      <trkpt lat="42.80565" lon="1.74462">
        <ele>1529.59</ele>
        <time>2021-08-22T09:15:37Z</time>
      </trkpt>
      <trkpt lat="42.80564" lon="1.74462">
        <ele>1529.59</ele>
        <time>2021-08-22T09:15:38Z</time>
      </trkpt>
      <trkpt lat="42.80563" lon="1.74462">
        <ele>1529.11</ele>
        <time>2021-08-22T09:15:39Z</time>
      </trkpt>
      <trkpt lat="42.80563" lon="1.74461">
        <ele>1529.11</ele>
        <time>2021-08-22T09:15:40Z</time>
      </trkpt>
      <trkpt lat="42.80557" lon="1.74456">
        <ele>1527.19</ele>
        <time>2021-08-22T09:15:50Z</time>
      </trkpt>
      <trkpt lat="42.80551" lon="1.74449">
        <ele>1525.75</ele>
        <time>2021-08-22T09:15:58Z</time>
      </trkpt>
      <trkpt lat="42.8055" lon="1.74448">
        <ele>1525.75</ele>
        <time>2021-08-22T09:15:59Z</time>
      </trkpt>
      <trkpt lat="42.80545" lon="1.74442">
        <ele>1524.31</ele>
        <time>2021-08-22T09:16:05Z</time>
      </trkpt>
      <trkpt lat="42.80545" lon="1.74441">
        <ele>1523.83</ele>
        <time>2021-08-22T09:16:06Z</time>
      </trkpt>
      <trkpt lat="42.80544" lon="1.7444">
        <ele>1523.83</ele>
        <time>2021-08-22T09:16:07Z</time>
      </trkpt>
      <trkpt lat="42.80543" lon="1.74439">
        <ele>1523.83</ele>
        <time>2021-08-22T09:16:08Z</time>
      </trkpt>
      <trkpt lat="42.80542" lon="1.74438">
        <ele>1523.35</ele>
        <time>2021-08-22T09:16:09Z</time>
      </trkpt>
      <trkpt lat="42.8054" lon="1.74437">
        <ele>1523.35</ele>
        <time>2021-08-22T09:16:10Z</time>
      </trkpt>
      <trkpt lat="42.80539" lon="1.74436">
        <ele>1523.35</ele>
        <time>2021-08-22T09:16:11Z</time>
      </trkpt>
      <trkpt lat="42.80538" lon="1.74435">
        <ele>1522.87</ele>
        <time>2021-08-22T09:16:12Z</time>
      </trkpt>
      <trkpt lat="42.80537" lon="1.74434">
        <ele>1522.87</ele>
        <time>2021-08-22T09:16:13Z</time>
      </trkpt>
      <trkpt lat="42.80536" lon="1.74432">
        <ele>1522.87</ele>
        <time>2021-08-22T09:16:14Z</time>
      </trkpt>
      <trkpt lat="42.80526" lon="1.74425">
        <ele>1520.46</ele>
        <time>2021-08-22T09:16:25Z</time>
      </trkpt>
      <trkpt lat="42.80518" lon="1.74417">
        <ele>1519.02</ele>
        <time>2021-08-22T09:16:35Z</time>
      </trkpt>
      <trkpt lat="42.80507" lon="1.74409">
        <ele>1516.62</ele>
        <time>2021-08-22T09:16:47Z</time>
      </trkpt>
      <trkpt lat="42.80498" lon="1.74397">
        <ele>1513.25</ele>
        <time>2021-08-22T09:17:00Z</time>
      </trkpt>
      <trkpt lat="42.80497" lon="1.74396">
        <ele>1512.77</ele>
        <time>2021-08-22T09:17:01Z</time>
      </trkpt>
      <trkpt lat="42.80489" lon="1.7439">
        <ele>1509.41</ele>
        <time>2021-08-22T09:17:11Z</time>
      </trkpt>
      <trkpt lat="42.80482" lon="1.7438">
        <ele>1506.04</ele>
        <time>2021-08-22T09:17:23Z</time>
      </trkpt>
      <trkpt lat="42.80474" lon="1.74367">
        <ele>1503.16</ele>
        <time>2021-08-22T09:17:34Z</time>
      </trkpt>
      <trkpt lat="42.80472" lon="1.74364">
        <ele>1502.68</ele>
        <time>2021-08-22T09:17:37Z</time>
      </trkpt>
      <trkpt lat="42.80471" lon="1.74363">
        <ele>1501.72</ele>
        <time>2021-08-22T09:17:38Z</time>
      </trkpt>
      <trkpt lat="42.8046" lon="1.74357">
        <ele>1499.31</ele>
        <time>2021-08-22T09:17:50Z</time>
      </trkpt>
      <trkpt lat="42.80452" lon="1.74346">
        <ele>1495.95</ele>
        <time>2021-08-22T09:18:01Z</time>
      </trkpt>
      <trkpt lat="42.80444" lon="1.74338">
        <ele>1493.55</ele>
        <time>2021-08-22T09:18:12Z</time>
      </trkpt>
      <trkpt lat="42.80441" lon="1.74333">
        <ele>1492.1</ele>
        <time>2021-08-22T09:18:17Z</time>
      </trkpt>
      <trkpt lat="42.8044" lon="1.74332">
        <ele>1492.1</ele>
        <time>2021-08-22T09:18:18Z</time>
      </trkpt>
      <trkpt lat="42.80439" lon="1.74332">
        <ele>1492.1</ele>
        <time>2021-08-22T09:18:19Z</time>
      </trkpt>
      <trkpt lat="42.80438" lon="1.7433">
        <ele>1491.62</ele>
        <time>2021-08-22T09:18:20Z</time>
      </trkpt>
      <trkpt lat="42.80434" lon="1.74326">
        <ele>1490.18</ele>
        <time>2021-08-22T09:18:28Z</time>
      </trkpt>
      <trkpt lat="42.80433" lon="1.74325">
        <ele>1489.7</ele>
        <time>2021-08-22T09:18:29Z</time>
      </trkpt>
      <trkpt lat="42.80427" lon="1.74331">
        <ele>1487.78</ele>
        <time>2021-08-22T09:18:38Z</time>
      </trkpt>
      <trkpt lat="42.80427" lon="1.74332">
        <ele>1487.3</ele>
        <time>2021-08-22T09:18:39Z</time>
      </trkpt>
      <trkpt lat="42.80427" lon="1.7434">
        <ele>1486.34</ele>
        <time>2021-08-22T09:18:43Z</time>
      </trkpt>
      <trkpt lat="42.80427" lon="1.74342">
        <ele>1485.85</ele>
        <time>2021-08-22T09:18:44Z</time>
      </trkpt>
      <trkpt lat="42.80427" lon="1.74344">
        <ele>1485.85</ele>
        <time>2021-08-22T09:18:45Z</time>
      </trkpt>
      <trkpt lat="42.80427" lon="1.74345">
        <ele>1485.85</ele>
        <time>2021-08-22T09:18:46Z</time>
      </trkpt>
      <trkpt lat="42.80428" lon="1.74347">
        <ele>1485.37</ele>
        <time>2021-08-22T09:18:47Z</time>
      </trkpt>
      <trkpt lat="42.80429" lon="1.74349">
        <ele>1485.37</ele>
        <time>2021-08-22T09:18:48Z</time>
      </trkpt>
      <trkpt lat="42.80429" lon="1.74354">
        <ele>1483.93</ele>
        <time>2021-08-22T09:18:54Z</time>
      </trkpt>
      <trkpt lat="42.80428" lon="1.74356">
        <ele>1483.93</ele>
        <time>2021-08-22T09:18:55Z</time>
      </trkpt>
      <trkpt lat="42.80429" lon="1.74358">
        <ele>1483.45</ele>
        <time>2021-08-22T09:18:56Z</time>
      </trkpt>
      <trkpt lat="42.80429" lon="1.7436">
        <ele>1483.45</ele>
        <time>2021-08-22T09:18:57Z</time>
      </trkpt>
      <trkpt lat="42.80429" lon="1.74362">
        <ele>1482.97</ele>
        <time>2021-08-22T09:18:58Z</time>
      </trkpt>
      <trkpt lat="42.80429" lon="1.74364">
        <ele>1482.97</ele>
        <time>2021-08-22T09:18:59Z</time>
      </trkpt>
      <trkpt lat="42.80429" lon="1.74365">
        <ele>1482.49</ele>
        <time>2021-08-22T09:19:00Z</time>
      </trkpt>
      <trkpt lat="42.8043" lon="1.74367">
        <ele>1482.49</ele>
        <time>2021-08-22T09:19:01Z</time>
      </trkpt>
      <trkpt lat="42.8043" lon="1.74369">
        <ele>1482.49</ele>
        <time>2021-08-22T09:19:02Z</time>
      </trkpt>
      <trkpt lat="42.80434" lon="1.74386">
        <ele>1482.01</ele>
        <time>2021-08-22T09:19:11Z</time>
      </trkpt>
      <trkpt lat="42.80434" lon="1.74387">
        <ele>1482.01</ele>
        <time>2021-08-22T09:19:12Z</time>
      </trkpt>
      <trkpt lat="42.80434" lon="1.74397">
        <ele>1480.57</ele>
        <time>2021-08-22T09:19:21Z</time>
      </trkpt>
      <trkpt lat="42.80433" lon="1.744">
        <ele>1480.09</ele>
        <time>2021-08-22T09:19:27Z</time>
      </trkpt>
      <trkpt lat="42.80433" lon="1.74401">
        <ele>1479.13</ele>
        <time>2021-08-22T09:19:37Z</time>
      </trkpt>
      <trkpt lat="42.80429" lon="1.74396">
        <ele>1477.68</ele>
        <time>2021-08-22T09:19:43Z</time>
      </trkpt>
      <trkpt lat="42.80422" lon="1.74395">
        <ele>1474.8</ele>
        <time>2021-08-22T09:19:53Z</time>
      </trkpt>
      <trkpt lat="42.80415" lon="1.74389">
        <ele>1471.92</ele>
        <time>2021-08-22T09:20:04Z</time>
      </trkpt>
      <trkpt lat="42.8041" lon="1.74386">
        <ele>1470.47</ele>
        <time>2021-08-22T09:20:14Z</time>
      </trkpt>
      <trkpt lat="42.80405" lon="1.7438">
        <ele>1468.55</ele>
        <time>2021-08-22T09:20:21Z</time>
      </trkpt>
      <trkpt lat="42.80402" lon="1.74387">
        <ele>1466.63</ele>
        <time>2021-08-22T09:20:28Z</time>
      </trkpt>
      <trkpt lat="42.80403" lon="1.74393">
        <ele>1466.15</ele>
        <time>2021-08-22T09:20:32Z</time>
      </trkpt>
      <trkpt lat="42.80401" lon="1.74399">
        <ele>1465.19</ele>
        <time>2021-08-22T09:20:37Z</time>
      </trkpt>
      <trkpt lat="42.80398" lon="1.74406">
        <ele>1462.78</ele>
        <time>2021-08-22T09:20:42Z</time>
      </trkpt>
      <trkpt lat="42.80398" lon="1.7441">
        <ele>1462.3</ele>
        <time>2021-08-22T09:20:45Z</time>
      </trkpt>
      <trkpt lat="42.80399" lon="1.74422">
        <ele>1459.9</ele>
        <time>2021-08-22T09:20:56Z</time>
      </trkpt>
      <trkpt lat="42.804" lon="1.7443">
        <ele>1459.42</ele>
        <time>2021-08-22T09:21:07Z</time>
      </trkpt>
      <trkpt lat="42.80401" lon="1.74431">
        <ele>1459.42</ele>
        <time>2021-08-22T09:21:08Z</time>
      </trkpt>
      <trkpt lat="42.80397" lon="1.74432">
        <ele>1457.02</ele>
        <time>2021-08-22T09:21:17Z</time>
      </trkpt>
      <trkpt lat="42.80395" lon="1.74429">
        <ele>1455.57</ele>
        <time>2021-08-22T09:21:22Z</time>
      </trkpt>
      <trkpt lat="42.80391" lon="1.74423">
        <ele>1454.61</ele>
        <time>2021-08-22T09:21:28Z</time>
      </trkpt>
      <trkpt lat="42.80387" lon="1.74417">
        <ele>1453.17</ele>
        <time>2021-08-22T09:21:34Z</time>
      </trkpt>
      <trkpt lat="42.80378" lon="1.74406">
        <ele>1450.29</ele>
        <time>2021-08-22T09:21:48Z</time>
      </trkpt>
      <trkpt lat="42.80375" lon="1.74403">
        <ele>1450.29</ele>
        <time>2021-08-22T09:21:52Z</time>
      </trkpt>
      <trkpt lat="42.80368" lon="1.74397">
        <ele>1447.4</ele>
        <time>2021-08-22T09:22:03Z</time>
      </trkpt>
      <trkpt lat="42.80361" lon="1.74391">
        <ele>1445</ele>
        <time>2021-08-22T09:22:14Z</time>
      </trkpt>
      <trkpt lat="42.80354" lon="1.74385">
        <ele>1442.11</ele>
        <time>2021-08-22T09:22:23Z</time>
      </trkpt>
      <trkpt lat="42.8035" lon="1.74375">
        <ele>1440.19</ele>
        <time>2021-08-22T09:22:31Z</time>
      </trkpt>
      <trkpt lat="42.80348" lon="1.74372">
        <ele>1439.23</ele>
        <time>2021-08-22T09:22:34Z</time>
      </trkpt>
      <trkpt lat="42.80346" lon="1.74367">
        <ele>1438.75</ele>
        <time>2021-08-22T09:22:38Z</time>
      </trkpt>
      <trkpt lat="42.8034" lon="1.74353">
        <ele>1435.87</ele>
        <time>2021-08-22T09:22:51Z</time>
      </trkpt>
      <trkpt lat="42.8034" lon="1.74349">
        <ele>1434.91</ele>
        <time>2021-08-22T09:22:54Z</time>
      </trkpt>
      <trkpt lat="42.80335" lon="1.74343">
        <ele>1432.98</ele>
        <time>2021-08-22T09:23:01Z</time>
      </trkpt>
      <trkpt lat="42.80333" lon="1.74332">
        <ele>1431.06</ele>
        <time>2021-08-22T09:23:13Z</time>
      </trkpt>
      <trkpt lat="42.80328" lon="1.74319">
        <ele>1428.66</ele>
        <time>2021-08-22T09:23:25Z</time>
      </trkpt>
      <trkpt lat="42.80325" lon="1.74309">
        <ele>1426.25</ele>
        <time>2021-08-22T09:23:35Z</time>
      </trkpt>
      <trkpt lat="42.80323" lon="1.74306">
        <ele>1425.77</ele>
        <time>2021-08-22T09:23:38Z</time>
      </trkpt>
      <trkpt lat="42.80324" lon="1.74291">
        <ele>1424.33</ele>
        <time>2021-08-22T09:23:50Z</time>
      </trkpt>
      <trkpt lat="42.80321" lon="1.74276">
        <ele>1421.45</ele>
        <time>2021-08-22T09:24:01Z</time>
      </trkpt>
      <trkpt lat="42.80319" lon="1.74271">
        <ele>1420</ele>
        <time>2021-08-22T09:24:05Z</time>
      </trkpt>
      <trkpt lat="42.80315" lon="1.74266">
        <ele>1419.04</ele>
        <time>2021-08-22T09:24:10Z</time>
      </trkpt>
      <trkpt lat="42.80314" lon="1.74262">
        <ele>1418.08</ele>
        <time>2021-08-22T09:24:14Z</time>
      </trkpt>
      <trkpt lat="42.80311" lon="1.74256">
        <ele>1417.12</ele>
        <time>2021-08-22T09:24:19Z</time>
      </trkpt>
      <trkpt lat="42.80311" lon="1.74252">
        <ele>1416.64</ele>
        <time>2021-08-22T09:24:22Z</time>
      </trkpt>
      <trkpt lat="42.80306" lon="1.74235">
        <ele>1414.72</ele>
        <time>2021-08-22T09:24:34Z</time>
      </trkpt>
      <trkpt lat="42.80305" lon="1.74227">
        <ele>1413.28</ele>
        <time>2021-08-22T09:24:40Z</time>
      </trkpt>
      <trkpt lat="42.80304" lon="1.74218">
        <ele>1412.31</ele>
        <time>2021-08-22T09:24:46Z</time>
      </trkpt>
      <trkpt lat="42.80301" lon="1.74202">
        <ele>1410.87</ele>
        <time>2021-08-22T09:24:57Z</time>
      </trkpt>
      <trkpt lat="42.80298" lon="1.74184">
        <ele>1408.47</ele>
        <time>2021-08-22T09:25:10Z</time>
      </trkpt>
      <trkpt lat="42.80298" lon="1.74173">
        <ele>1407.51</ele>
        <time>2021-08-22T09:25:20Z</time>
      </trkpt>
      <trkpt lat="42.80296" lon="1.74159">
        <ele>1404.14</ele>
        <time>2021-08-22T09:25:35Z</time>
      </trkpt>
      <trkpt lat="42.80295" lon="1.74149">
        <ele>1402.22</ele>
        <time>2021-08-22T09:25:45Z</time>
      </trkpt>
      <trkpt lat="42.80293" lon="1.74139">
        <ele>1400.3</ele>
        <time>2021-08-22T09:25:55Z</time>
      </trkpt>
      <trkpt lat="42.80291" lon="1.74132">
        <ele>1399.34</ele>
        <time>2021-08-22T09:26:03Z</time>
      </trkpt>
      <trkpt lat="42.80287" lon="1.74113">
        <ele>1395.97</ele>
        <time>2021-08-22T09:26:17Z</time>
      </trkpt>
      <trkpt lat="42.80288" lon="1.74092">
        <ele>1393.09</ele>
        <time>2021-08-22T09:26:31Z</time>
      </trkpt>
      <trkpt lat="42.80289" lon="1.74087">
        <ele>1391.65</ele>
        <time>2021-08-22T09:26:36Z</time>
      </trkpt>
      <trkpt lat="42.80283" lon="1.74072">
        <ele>1389.72</ele>
        <time>2021-08-22T09:26:48Z</time>
      </trkpt>
      <trkpt lat="42.80272" lon="1.74057">
        <ele>1387.32</ele>
        <time>2021-08-22T09:27:02Z</time>
      </trkpt>
      <trkpt lat="42.80258" lon="1.7405">
        <ele>1384.92</ele>
        <time>2021-08-22T09:27:15Z</time>
      </trkpt>
      <trkpt lat="42.80247" lon="1.74041">
        <ele>1383.96</ele>
        <time>2021-08-22T09:27:28Z</time>
      </trkpt>
      <trkpt lat="42.80234" lon="1.74033">
        <ele>1382.99</ele>
        <time>2021-08-22T09:27:40Z</time>
      </trkpt>
      <trkpt lat="42.80226" lon="1.74028">
        <ele>1382.03</ele>
        <time>2021-08-22T09:27:47Z</time>
      </trkpt>
      <trkpt lat="42.80216" lon="1.74027">
        <ele>1379.63</ele>
        <time>2021-08-22T09:27:59Z</time>
      </trkpt>
      <trkpt lat="42.8021" lon="1.74031">
        <ele>1377.23</ele>
        <time>2021-08-22T09:28:08Z</time>
      </trkpt>
      <trkpt lat="42.80204" lon="1.74032">
        <ele>1375.78</ele>
        <time>2021-08-22T09:28:14Z</time>
      </trkpt>
      <trkpt lat="42.80199" lon="1.74033">
        <ele>1374.34</ele>
        <time>2021-08-22T09:28:24Z</time>
      </trkpt>
      <trkpt lat="42.80189" lon="1.74034">
        <ele>1372.42</ele>
        <time>2021-08-22T09:28:37Z</time>
      </trkpt>
      <trkpt lat="42.80182" lon="1.74031">
        <ele>1370.5</ele>
        <time>2021-08-22T09:28:45Z</time>
      </trkpt>
      <trkpt lat="42.80172" lon="1.74028">
        <ele>1367.13</ele>
        <time>2021-08-22T09:28:55Z</time>
      </trkpt>
      <trkpt lat="42.80168" lon="1.74026">
        <ele>1366.17</ele>
        <time>2021-08-22T09:28:59Z</time>
      </trkpt>
      <trkpt lat="42.8015" lon="1.74022">
        <ele>1364.25</ele>
        <time>2021-08-22T09:29:14Z</time>
      </trkpt>
      <trkpt lat="42.80142" lon="1.74022">
        <ele>1361.36</ele>
        <time>2021-08-22T09:29:26Z</time>
      </trkpt>
      <trkpt lat="42.80139" lon="1.74027">
        <ele>1359.92</ele>
        <time>2021-08-22T09:29:36Z</time>
      </trkpt>
      <trkpt lat="42.80134" lon="1.74026">
        <ele>1358.96</ele>
        <time>2021-08-22T09:29:52Z</time>
      </trkpt>
      <trkpt lat="42.80125" lon="1.74026">
        <ele>1357.04</ele>
        <time>2021-08-22T09:30:03Z</time>
      </trkpt>
      <trkpt lat="42.8012" lon="1.74028">
        <ele>1354.63</ele>
        <time>2021-08-22T09:30:14Z</time>
      </trkpt>
      <trkpt lat="42.80114" lon="1.74032">
        <ele>1352.71</ele>
        <time>2021-08-22T09:30:25Z</time>
      </trkpt>
      <trkpt lat="42.80113" lon="1.74039">
        <ele>1350.79</ele>
        <time>2021-08-22T09:30:36Z</time>
      </trkpt>
      <trkpt lat="42.80114" lon="1.74044">
        <ele>1349.35</ele>
        <time>2021-08-22T09:30:43Z</time>
      </trkpt>
      <trkpt lat="42.80112" lon="1.74045">
        <ele>1348.39</ele>
        <time>2021-08-22T09:30:45Z</time>
      </trkpt>
      <trkpt lat="42.80102" lon="1.74051">
        <ele>1345.98</ele>
        <time>2021-08-22T09:30:58Z</time>
      </trkpt>
      <trkpt lat="42.80099" lon="1.74051">
        <ele>1345.02</ele>
        <time>2021-08-22T09:31:02Z</time>
      </trkpt>
      <trkpt lat="42.8009" lon="1.74046">
        <ele>1342.62</ele>
        <time>2021-08-22T09:31:15Z</time>
      </trkpt>
      <trkpt lat="42.80084" lon="1.74047">
        <ele>1340.22</ele>
        <time>2021-08-22T09:31:25Z</time>
      </trkpt>
      <trkpt lat="42.80081" lon="1.74054">
        <ele>1338.77</ele>
        <time>2021-08-22T09:31:34Z</time>
      </trkpt>
      <trkpt lat="42.80072" lon="1.74047">
        <ele>1335.41</ele>
        <time>2021-08-22T09:31:45Z</time>
      </trkpt>
      <trkpt lat="42.80065" lon="1.74046">
        <ele>1333.49</ele>
        <time>2021-08-22T09:31:55Z</time>
      </trkpt>
      <trkpt lat="42.80058" lon="1.74036">
        <ele>1331.08</ele>
        <time>2021-08-22T09:32:07Z</time>
      </trkpt>
      <trkpt lat="42.80049" lon="1.74027">
        <ele>1327.72</ele>
        <time>2021-08-22T09:32:21Z</time>
      </trkpt>
      <trkpt lat="42.8004" lon="1.74027">
        <ele>1325.31</ele>
        <time>2021-08-22T09:32:32Z</time>
      </trkpt>
      <trkpt lat="42.80036" lon="1.74017">
        <ele>1323.39</ele>
        <time>2021-08-22T09:32:43Z</time>
      </trkpt>
      <trkpt lat="42.80031" lon="1.74014">
        <ele>1321.95</ele>
        <time>2021-08-22T09:32:50Z</time>
      </trkpt>
      <trkpt lat="42.80023" lon="1.73996">
        <ele>1319.07</ele>
        <time>2021-08-22T09:33:06Z</time>
      </trkpt>
      <trkpt lat="42.80019" lon="1.73981">
        <ele>1316.66</ele>
        <time>2021-08-22T09:33:19Z</time>
      </trkpt>
      <trkpt lat="42.80009" lon="1.73963">
        <ele>1313.78</ele>
        <time>2021-08-22T09:33:33Z</time>
      </trkpt>
      <trkpt lat="42.80002" lon="1.73954">
        <ele>1312.82</ele>
        <time>2021-08-22T09:33:40Z</time>
      </trkpt>
      <trkpt lat="42.79991" lon="1.73947">
        <ele>1310.41</ele>
        <time>2021-08-22T09:33:51Z</time>
      </trkpt>
      <trkpt lat="42.79985" lon="1.73939">
        <ele>1308.49</ele>
        <time>2021-08-22T09:34:03Z</time>
      </trkpt>
      <trkpt lat="42.79982" lon="1.73932">
        <ele>1308.01</ele>
        <time>2021-08-22T09:34:08Z</time>
      </trkpt>
      <trkpt lat="42.79979" lon="1.73926">
        <ele>1308.01</ele>
        <time>2021-08-22T09:34:13Z</time>
      </trkpt>
      <trkpt lat="42.79974" lon="1.7392">
        <ele>1307.05</ele>
        <time>2021-08-22T09:34:18Z</time>
      </trkpt>
      <trkpt lat="42.79965" lon="1.73907">
        <ele>1305.13</ele>
        <time>2021-08-22T09:34:32Z</time>
      </trkpt>
      <trkpt lat="42.7995" lon="1.739">
        <ele>1301.76</ele>
        <time>2021-08-22T09:34:45Z</time>
      </trkpt>
      <trkpt lat="42.79947" lon="1.739">
        <ele>1301.28</ele>
        <time>2021-08-22T09:34:48Z</time>
      </trkpt>
      <trkpt lat="42.79938" lon="1.73895">
        <ele>1299.84</ele>
        <time>2021-08-22T09:34:57Z</time>
      </trkpt>
      <trkpt lat="42.79927" lon="1.73895">
        <ele>1296.96</ele>
        <time>2021-08-22T09:35:08Z</time>
      </trkpt>
      <trkpt lat="42.79926" lon="1.73895">
        <ele>1296.96</ele>
        <time>2021-08-22T09:35:20Z</time>
      </trkpt>
      <trkpt lat="42.79919" lon="1.7389">
        <ele>1295.03</ele>
        <time>2021-08-22T09:35:33Z</time>
      </trkpt>
      <trkpt lat="42.7991" lon="1.7389">
        <ele>1293.11</ele>
        <time>2021-08-22T09:35:44Z</time>
      </trkpt>
      <trkpt lat="42.79902" lon="1.73891">
        <ele>1290.71</ele>
        <time>2021-08-22T09:35:55Z</time>
      </trkpt>
      <trkpt lat="42.79896" lon="1.73894">
        <ele>1288.3</ele>
        <time>2021-08-22T09:36:06Z</time>
      </trkpt>
      <trkpt lat="42.7989" lon="1.73899">
        <ele>1286.86</ele>
        <time>2021-08-22T09:36:12Z</time>
      </trkpt>
      <trkpt lat="42.79878" lon="1.7391">
        <ele>1284.94</ele>
        <time>2021-08-22T09:36:22Z</time>
      </trkpt>
      <trkpt lat="42.79875" lon="1.73913">
        <ele>1283.98</ele>
        <time>2021-08-22T09:36:24Z</time>
      </trkpt>
      <trkpt lat="42.79863" lon="1.73922">
        <ele>1282.54</ele>
        <time>2021-08-22T09:36:35Z</time>
      </trkpt>
      <trkpt lat="42.79849" lon="1.73932">
        <ele>1279.65</ele>
        <time>2021-08-22T09:36:48Z</time>
      </trkpt>
      <trkpt lat="42.7984" lon="1.73941">
        <ele>1276.77</ele>
        <time>2021-08-22T09:36:58Z</time>
      </trkpt>
      <trkpt lat="42.79832" lon="1.7395">
        <ele>1273.4</ele>
        <time>2021-08-22T09:37:09Z</time>
      </trkpt>
      <trkpt lat="42.79827" lon="1.73956">
        <ele>1271.48</ele>
        <time>2021-08-22T09:37:16Z</time>
      </trkpt>
      <trkpt lat="42.79812" lon="1.7397">
        <ele>1268.12</ele>
        <time>2021-08-22T09:37:31Z</time>
      </trkpt>
      <trkpt lat="42.79803" lon="1.73986">
        <ele>1265.71</ele>
        <time>2021-08-22T09:37:44Z</time>
      </trkpt>
      <trkpt lat="42.79798" lon="1.73993">
        <ele>1264.27</ele>
        <time>2021-08-22T09:37:52Z</time>
      </trkpt>
      <trkpt lat="42.79788" lon="1.74006">
        <ele>1261.87</ele>
        <time>2021-08-22T09:38:05Z</time>
      </trkpt>
      <trkpt lat="42.7978" lon="1.74011">
        <ele>1259.94</ele>
        <time>2021-08-22T09:38:13Z</time>
      </trkpt>
      <trkpt lat="42.79765" lon="1.74014">
        <ele>1257.06</ele>
        <time>2021-08-22T09:38:27Z</time>
      </trkpt>
      <trkpt lat="42.79761" lon="1.74014">
        <ele>1256.1</ele>
        <time>2021-08-22T09:38:31Z</time>
      </trkpt>
      <trkpt lat="42.79759" lon="1.74015">
        <ele>1255.62</ele>
        <time>2021-08-22T09:38:33Z</time>
      </trkpt>
      <trkpt lat="42.79749" lon="1.74012">
        <ele>1254.18</ele>
        <time>2021-08-22T09:38:43Z</time>
      </trkpt>
      <trkpt lat="42.7974" lon="1.74013">
        <ele>1252.74</ele>
        <time>2021-08-22T09:38:51Z</time>
      </trkpt>
      <trkpt lat="42.7973" lon="1.74014">
        <ele>1251.29</ele>
        <time>2021-08-22T09:39:03Z</time>
      </trkpt>
      <trkpt lat="42.79719" lon="1.74014">
        <ele>1249.37</ele>
        <time>2021-08-22T09:39:15Z</time>
      </trkpt>
      <trkpt lat="42.79712" lon="1.74012">
        <ele>1247.45</ele>
        <time>2021-08-22T09:39:24Z</time>
      </trkpt>
      <trkpt lat="42.79703" lon="1.7401">
        <ele>1245.53</ele>
        <time>2021-08-22T09:39:36Z</time>
      </trkpt>
      <trkpt lat="42.79696" lon="1.74009">
        <ele>1243.12</ele>
        <time>2021-08-22T09:39:48Z</time>
      </trkpt>
      <trkpt lat="42.7969" lon="1.74011">
        <ele>1241.68</ele>
        <time>2021-08-22T09:39:57Z</time>
      </trkpt>
      <trkpt lat="42.79682" lon="1.74006">
        <ele>1239.28</ele>
        <time>2021-08-22T09:40:09Z</time>
      </trkpt>
      <trkpt lat="42.79679" lon="1.74005">
        <ele>1238.32</ele>
        <time>2021-08-22T09:40:20Z</time>
      </trkpt>
      <trkpt lat="42.79672" lon="1.74002">
        <ele>1236.39</ele>
        <time>2021-08-22T09:40:32Z</time>
      </trkpt>
      <trkpt lat="42.79665" lon="1.74001">
        <ele>1233.99</ele>
        <time>2021-08-22T09:40:44Z</time>
      </trkpt>
      <trkpt lat="42.79654" lon="1.73994">
        <ele>1230.62</ele>
        <time>2021-08-22T09:40:56Z</time>
      </trkpt>
      <trkpt lat="42.7964" lon="1.73987">
        <ele>1227.74</ele>
        <time>2021-08-22T09:41:07Z</time>
      </trkpt>
      <trkpt lat="42.79636" lon="1.73985">
        <ele>1226.78</ele>
        <time>2021-08-22T09:41:11Z</time>
      </trkpt>
      <trkpt lat="42.79619" lon="1.73972">
        <ele>1223.9</ele>
        <time>2021-08-22T09:41:24Z</time>
      </trkpt>
      <trkpt lat="42.79607" lon="1.73966">
        <ele>1221.01</ele>
        <time>2021-08-22T09:41:36Z</time>
      </trkpt>
      <trkpt lat="42.79596" lon="1.73966">
        <ele>1218.61</ele>
        <time>2021-08-22T09:41:45Z</time>
      </trkpt>
      <trkpt lat="42.79586" lon="1.73966">
        <ele>1216.21</ele>
        <time>2021-08-22T09:41:57Z</time>
      </trkpt>
      <trkpt lat="42.7958" lon="1.73957">
        <ele>1214.28</ele>
        <time>2021-08-22T09:42:09Z</time>
      </trkpt>
      <trkpt lat="42.79576" lon="1.73952">
        <ele>1211.88</ele>
        <time>2021-08-22T09:42:18Z</time>
      </trkpt>
      <trkpt lat="42.79572" lon="1.73944">
        <ele>1210.44</ele>
        <time>2021-08-22T09:42:29Z</time>
      </trkpt>
      <trkpt lat="42.79564" lon="1.73939">
        <ele>1208.51</ele>
        <time>2021-08-22T09:42:41Z</time>
      </trkpt>
      <trkpt lat="42.79554" lon="1.73943">
        <ele>1207.07</ele>
        <time>2021-08-22T09:42:53Z</time>
      </trkpt>
      <trkpt lat="42.79547" lon="1.73949">
        <ele>1204.67</ele>
        <time>2021-08-22T09:43:05Z</time>
      </trkpt>
      <trkpt lat="42.79545" lon="1.73952">
        <ele>1204.19</ele>
        <time>2021-08-22T09:43:18Z</time>
      </trkpt>
      <trkpt lat="42.79544" lon="1.73955">
        <ele>1203.71</ele>
        <time>2021-08-22T09:43:31Z</time>
      </trkpt>
      <trkpt lat="42.79541" lon="1.73966">
        <ele>1201.79</ele>
        <time>2021-08-22T09:43:43Z</time>
      </trkpt>
      <trkpt lat="42.79534" lon="1.7397">
        <ele>1199.38</ele>
        <time>2021-08-22T09:43:52Z</time>
      </trkpt>
      <trkpt lat="42.79534" lon="1.7397">
        <ele>1199.38</ele>
        <time>2021-08-22T09:43:53Z</time>
      </trkpt>
      <trkpt lat="42.79529" lon="1.73974">
        <ele>1198.9</ele>
        <time>2021-08-22T09:44:01Z</time>
      </trkpt>
      <trkpt lat="42.79523" lon="1.73968">
        <ele>1197.46</ele>
        <time>2021-08-22T09:44:11Z</time>
      </trkpt>
      <trkpt lat="42.79521" lon="1.73964">
        <ele>1196.98</ele>
        <time>2021-08-22T09:44:15Z</time>
      </trkpt>
      <trkpt lat="42.79517" lon="1.73947">
        <ele>1194.58</ele>
        <time>2021-08-22T09:44:29Z</time>
      </trkpt>
      <trkpt lat="42.79518" lon="1.73935">
        <ele>1193.13</ele>
        <time>2021-08-22T09:44:37Z</time>
      </trkpt>
      <trkpt lat="42.79521" lon="1.73929">
        <ele>1192.17</ele>
        <time>2021-08-22T09:44:46Z</time>
      </trkpt>
      <trkpt lat="42.79522" lon="1.73919">
        <ele>1190.25</ele>
        <time>2021-08-22T09:44:57Z</time>
      </trkpt>
      <trkpt lat="42.79523" lon="1.73908">
        <ele>1188.81</ele>
        <time>2021-08-22T09:45:08Z</time>
      </trkpt>
      <trkpt lat="42.79525" lon="1.73892">
        <ele>1186.4</ele>
        <time>2021-08-22T09:45:22Z</time>
      </trkpt>
      <trkpt lat="42.79529" lon="1.73882">
        <ele>1184.48</ele>
        <time>2021-08-22T09:45:34Z</time>
      </trkpt>
      <trkpt lat="42.79531" lon="1.7387">
        <ele>1181.6</ele>
        <time>2021-08-22T09:45:46Z</time>
      </trkpt>
      <trkpt lat="42.7953" lon="1.73857">
        <ele>1179.67</ele>
        <time>2021-08-22T09:45:58Z</time>
      </trkpt>
      <trkpt lat="42.79532" lon="1.73853">
        <ele>1178.71</ele>
        <time>2021-08-22T09:46:13Z</time>
      </trkpt>
      <trkpt lat="42.79529" lon="1.7384">
        <ele>1175.35</ele>
        <time>2021-08-22T09:46:25Z</time>
      </trkpt>
      <trkpt lat="42.79527" lon="1.73826">
        <ele>1172.47</ele>
        <time>2021-08-22T09:46:38Z</time>
      </trkpt>
      <trkpt lat="42.79526" lon="1.7382">
        <ele>1171.02</ele>
        <time>2021-08-22T09:46:45Z</time>
      </trkpt>
      <trkpt lat="42.79522" lon="1.73803">
        <ele>1168.14</ele>
        <time>2021-08-22T09:46:59Z</time>
      </trkpt>
      <trkpt lat="42.79518" lon="1.73792">
        <ele>1164.77</ele>
        <time>2021-08-22T09:47:11Z</time>
      </trkpt>
      <trkpt lat="42.79518" lon="1.73778">
        <ele>1162.85</ele>
        <time>2021-08-22T09:47:22Z</time>
      </trkpt>
      <trkpt lat="42.79523" lon="1.73766">
        <ele>1160.93</ele>
        <time>2021-08-22T09:47:33Z</time>
      </trkpt>
      <trkpt lat="42.79529" lon="1.73753">
        <ele>1157.56</ele>
        <time>2021-08-22T09:47:46Z</time>
      </trkpt>
      <trkpt lat="42.79534" lon="1.73739">
        <ele>1155.16</ele>
        <time>2021-08-22T09:47:59Z</time>
      </trkpt>
      <trkpt lat="42.79538" lon="1.73727">
        <ele>1152.28</ele>
        <time>2021-08-22T09:48:13Z</time>
      </trkpt>
      <trkpt lat="42.7954" lon="1.73716">
        <ele>1149.39</ele>
        <time>2021-08-22T09:48:25Z</time>
      </trkpt>
      <trkpt lat="42.79543" lon="1.73706">
        <ele>1147.47</ele>
        <time>2021-08-22T09:48:37Z</time>
      </trkpt>
      <trkpt lat="42.79545" lon="1.73706">
        <ele>1147.95</ele>
        <time>2021-08-22T09:48:47Z</time>
      </trkpt>
      <trkpt lat="42.79548" lon="1.73692">
        <ele>1145.55</ele>
        <time>2021-08-22T09:49:00Z</time>
      </trkpt>
      <trkpt lat="42.79551" lon="1.73675">
        <ele>1143.14</ele>
        <time>2021-08-22T09:49:14Z</time>
      </trkpt>
      <trkpt lat="42.79552" lon="1.7367">
        <ele>1142.66</ele>
        <time>2021-08-22T09:49:18Z</time>
      </trkpt>
      <trkpt lat="42.79553" lon="1.73655">
        <ele>1140.26</ele>
        <time>2021-08-22T09:49:30Z</time>
      </trkpt>
      <trkpt lat="42.79558" lon="1.73638">
        <ele>1138.34</ele>
        <time>2021-08-22T09:49:44Z</time>
      </trkpt>
      <trkpt lat="42.79556" lon="1.73628">
        <ele>1135.94</ele>
        <time>2021-08-22T09:49:57Z</time>
      </trkpt>
      <trkpt lat="42.79553" lon="1.73623">
        <ele>1134.01</ele>
        <time>2021-08-22T09:50:10Z</time>
      </trkpt>
      <trkpt lat="42.79554" lon="1.7361">
        <ele>1132.09</ele>
        <time>2021-08-22T09:50:24Z</time>
      </trkpt>
      <trkpt lat="42.79553" lon="1.73598">
        <ele>1129.69</ele>
        <time>2021-08-22T09:50:36Z</time>
      </trkpt>
      <trkpt lat="42.79553" lon="1.73591">
        <ele>1127.76</ele>
        <time>2021-08-22T09:50:49Z</time>
      </trkpt>
      <trkpt lat="42.79548" lon="1.73579">
        <ele>1124.4</ele>
        <time>2021-08-22T09:51:03Z</time>
      </trkpt>
      <trkpt lat="42.79542" lon="1.73569">
        <ele>1121.52</ele>
        <time>2021-08-22T09:51:16Z</time>
      </trkpt>
      <trkpt lat="42.79538" lon="1.73567">
        <ele>1118.63</ele>
        <time>2021-08-22T09:51:29Z</time>
      </trkpt>
      <trkpt lat="42.79536" lon="1.73562">
        <ele>1117.19</ele>
        <time>2021-08-22T09:51:39Z</time>
      </trkpt>
      <trkpt lat="42.79535" lon="1.73548">
        <ele>1114.31</ele>
        <time>2021-08-22T09:51:52Z</time>
      </trkpt>
      <trkpt lat="42.79535" lon="1.73541">
        <ele>1112.38</ele>
        <time>2021-08-22T09:52:03Z</time>
      </trkpt>
      <trkpt lat="42.79529" lon="1.73539">
        <ele>1110.46</ele>
        <time>2021-08-22T09:52:13Z</time>
      </trkpt>
      <trkpt lat="42.79523" lon="1.73547">
        <ele>1108.06</ele>
        <time>2021-08-22T09:52:25Z</time>
      </trkpt>
      <trkpt lat="42.79515" lon="1.73554">
        <ele>1105.65</ele>
        <time>2021-08-22T09:52:39Z</time>
      </trkpt>
      <trkpt lat="42.79511" lon="1.73556">
        <ele>1103.73</ele>
        <time>2021-08-22T09:52:48Z</time>
      </trkpt>
      <trkpt lat="42.79506" lon="1.73553">
        <ele>1101.81</ele>
        <time>2021-08-22T09:52:58Z</time>
      </trkpt>
      <trkpt lat="42.79496" lon="1.73567">
        <ele>1098.44</ele>
        <time>2021-08-22T09:53:12Z</time>
      </trkpt>
      <trkpt lat="42.79493" lon="1.73569">
        <ele>1096.52</ele>
        <time>2021-08-22T09:53:20Z</time>
      </trkpt>
      <trkpt lat="42.79487" lon="1.7357">
        <ele>1094.6</ele>
        <time>2021-08-22T09:53:29Z</time>
      </trkpt>
      <trkpt lat="42.79483" lon="1.73573">
        <ele>1093.64</ele>
        <time>2021-08-22T09:53:34Z</time>
      </trkpt>
      <trkpt lat="42.79478" lon="1.73585">
        <ele>1091.71</ele>
        <time>2021-08-22T09:53:47Z</time>
      </trkpt>
      <trkpt lat="42.79479" lon="1.73576">
        <ele>1089.31</ele>
        <time>2021-08-22T09:53:58Z</time>
      </trkpt>
      <trkpt lat="42.79476" lon="1.73568">
        <ele>1087.87</ele>
        <time>2021-08-22T09:54:07Z</time>
      </trkpt>
      <trkpt lat="42.79478" lon="1.73558">
        <ele>1085.95</ele>
        <time>2021-08-22T09:54:17Z</time>
      </trkpt>
      <trkpt lat="42.79477" lon="1.73548">
        <ele>1083.54</ele>
        <time>2021-08-22T09:54:27Z</time>
      </trkpt>
      <trkpt lat="42.79474" lon="1.73534">
        <ele>1081.14</ele>
        <time>2021-08-22T09:54:41Z</time>
      </trkpt>
      <trkpt lat="42.79473" lon="1.73522">
        <ele>1079.22</ele>
        <time>2021-08-22T09:54:52Z</time>
      </trkpt>
      <trkpt lat="42.79471" lon="1.73506">
        <ele>1076.33</ele>
        <time>2021-08-22T09:55:06Z</time>
      </trkpt>
      <trkpt lat="42.79472" lon="1.73495">
        <ele>1074.41</ele>
        <time>2021-08-22T09:55:18Z</time>
      </trkpt>
      <trkpt lat="42.79471" lon="1.73483">
        <ele>1071.53</ele>
        <time>2021-08-22T09:55:32Z</time>
      </trkpt>
      <trkpt lat="42.79468" lon="1.73472">
        <ele>1070.08</ele>
        <time>2021-08-22T09:55:43Z</time>
      </trkpt>
      <trkpt lat="42.79467" lon="1.73462">
        <ele>1067.68</ele>
        <time>2021-08-22T09:55:54Z</time>
      </trkpt>
      <trkpt lat="42.79463" lon="1.73445">
        <ele>1065.76</ele>
        <time>2021-08-22T09:56:06Z</time>
      </trkpt>
      <trkpt lat="42.79464" lon="1.73425">
        <ele>1063.84</ele>
        <time>2021-08-22T09:56:19Z</time>
      </trkpt>
      <trkpt lat="42.79467" lon="1.73408">
        <ele>1062.39</ele>
        <time>2021-08-22T09:56:31Z</time>
      </trkpt>
      <trkpt lat="42.79465" lon="1.73401">
        <ele>1060.95</ele>
        <time>2021-08-22T09:56:41Z</time>
      </trkpt>
      <trkpt lat="42.79456" lon="1.73392">
        <ele>1059.03</ele>
        <time>2021-08-22T09:56:54Z</time>
      </trkpt>
      <trkpt lat="42.79448" lon="1.73387">
        <ele>1056.63</ele>
        <time>2021-08-22T09:57:05Z</time>
      </trkpt>
      <trkpt lat="42.79434" lon="1.73388">
        <ele>1053.26</ele>
        <time>2021-08-22T09:57:17Z</time>
      </trkpt>
      <trkpt lat="42.79415" lon="1.73394">
        <ele>1052.3</ele>
        <time>2021-08-22T09:57:31Z</time>
      </trkpt>
      <trkpt lat="42.79408" lon="1.73395">
        <ele>1051.82</ele>
        <time>2021-08-22T09:57:36Z</time>
      </trkpt>
      <trkpt lat="42.79402" lon="1.73395">
        <ele>1051.34</ele>
        <time>2021-08-22T09:57:40Z</time>
      </trkpt>
      <trkpt lat="42.79383" lon="1.73394">
        <ele>1047.97</ele>
        <time>2021-08-22T09:57:55Z</time>
      </trkpt>
      <trkpt lat="42.79379" lon="1.73394">
        <ele>1047.49</ele>
        <time>2021-08-22T09:57:59Z</time>
      </trkpt>
      <trkpt lat="42.79366" lon="1.73393">
        <ele>1045.57</ele>
        <time>2021-08-22T09:58:11Z</time>
      </trkpt>
      <trkpt lat="42.79354" lon="1.73394">
        <ele>1042.69</ele>
        <time>2021-08-22T09:58:24Z</time>
      </trkpt>
      <trkpt lat="42.79345" lon="1.73394">
        <ele>1040.28</ele>
        <time>2021-08-22T09:58:36Z</time>
      </trkpt>
      <trkpt lat="42.79338" lon="1.73391">
        <ele>1037.88</ele>
        <time>2021-08-22T09:58:48Z</time>
      </trkpt>
      <trkpt lat="42.79326" lon="1.7339">
        <ele>1034.52</ele>
        <time>2021-08-22T09:59:01Z</time>
      </trkpt>
      <trkpt lat="42.79317" lon="1.73392">
        <ele>1031.15</ele>
        <time>2021-08-22T09:59:14Z</time>
      </trkpt>
      <trkpt lat="42.79307" lon="1.73396">
        <ele>1028.27</ele>
        <time>2021-08-22T09:59:26Z</time>
      </trkpt>
      <trkpt lat="42.79305" lon="1.73396">
        <ele>1028.27</ele>
        <time>2021-08-22T09:59:28Z</time>
      </trkpt>
      <trkpt lat="42.79301" lon="1.73401">
        <ele>1027.31</ele>
        <time>2021-08-22T09:59:32Z</time>
      </trkpt>
      <trkpt lat="42.79297" lon="1.73422">
        <ele>1025.86</ele>
        <time>2021-08-22T09:59:46Z</time>
      </trkpt>
      <trkpt lat="42.79292" lon="1.73414">
        <ele>1024.42</ele>
        <time>2021-08-22T09:59:58Z</time>
      </trkpt>
      <trkpt lat="42.79288" lon="1.73403">
        <ele>1021.06</ele>
        <time>2021-08-22T10:00:10Z</time>
      </trkpt>
      <trkpt lat="42.79278" lon="1.73395">
        <ele>1019.13</ele>
        <time>2021-08-22T10:00:22Z</time>
      </trkpt>
      <trkpt lat="42.79264" lon="1.73392">
        <ele>1015.77</ele>
        <time>2021-08-22T10:00:34Z</time>
      </trkpt>
      <trkpt lat="42.79248" lon="1.7339">
        <ele>1012.89</ele>
        <time>2021-08-22T10:00:49Z</time>
      </trkpt>
      <trkpt lat="42.79237" lon="1.73378">
        <ele>1010.96</ele>
        <time>2021-08-22T10:01:03Z</time>
      </trkpt>
      <trkpt lat="42.79229" lon="1.73369">
        <ele>1009.52</ele>
        <time>2021-08-22T10:01:12Z</time>
      </trkpt>
      <trkpt lat="42.79216" lon="1.73351">
        <ele>1007.6</ele>
        <time>2021-08-22T10:01:27Z</time>
      </trkpt>
      <trkpt lat="42.79204" lon="1.73327">
        <ele>1005.2</ele>
        <time>2021-08-22T10:01:43Z</time>
      </trkpt>
      <trkpt lat="42.79194" lon="1.73299">
        <ele>1003.27</ele>
        <time>2021-08-22T10:01:59Z</time>
      </trkpt>
      <trkpt lat="42.79184" lon="1.73278">
        <ele>1001.83</ele>
        <time>2021-08-22T10:02:13Z</time>
      </trkpt>
      <trkpt lat="42.79177" lon="1.73273">
        <ele>999.91</ele>
        <time>2021-08-22T10:02:24Z</time>
      </trkpt>
      <trkpt lat="42.79176" lon="1.73274">
        <ele>1000.39</ele>
        <time>2021-08-22T10:02:31Z</time>
      </trkpt>
      <trkpt lat="42.79169" lon="1.73277">
        <ele>998.95</ele>
        <time>2021-08-22T10:02:37Z</time>
      </trkpt>
      <trkpt lat="42.79163" lon="1.7328">
        <ele>998.95</ele>
        <time>2021-08-22T10:02:43Z</time>
      </trkpt>
      <trkpt lat="42.79159" lon="1.73285">
        <ele>998.47</ele>
        <time>2021-08-22T10:02:56Z</time>
      </trkpt>
      <trkpt lat="42.79157" lon="1.73285">
        <ele>999.91</ele>
        <time>2021-08-22T10:03:04Z</time>
      </trkpt>
      <trkpt lat="42.79157" lon="1.73285">
        <ele>999.91</ele>
        <time>2021-08-22T10:03:24Z</time>
      </trkpt>
    </trkseg>
  </trk>
</gpx>